<?xml version="1.0" encoding="UTF-8" standalone="no" ?>
<gpx xmlns="http://www.topografix.com/GPX/1/1" xmlns:xsi="http://www.w3.org/2001/XMLSchema-instance" xsi:schemaLocation="http://www.topografix.com/GPX/1/1 http://www.topografix.com/GPX/1/1/gpx.xsd" version="1.1" creator="VisuGPX - https://www.visugpx.com">
  <metadata>
    <name>Source de la Bièvre</name>
    <desc><![CDATA[Randonnée en boucle de 11 km]]></desc>
  </metadata>
  <trk>
    <name><![CDATA[Source de la Bièvre_R]]></name>
    <trkseg>
      <trkpt lat="48.77933" lon="2.0955">
        <ele>121.39</ele>
        <time>2020-05-17T08:15:13Z</time>
      </trkpt>
      <trkpt lat="48.77933" lon="2.09551">
        <ele>121.9</ele>
        <time>2020-05-17T08:15:37Z</time>
      </trkpt>
      <trkpt lat="48.77939" lon="2.09541">
        <ele>121.12</ele>
        <time>2020-05-17T08:15:55Z</time>
      </trkpt>
      <trkpt lat="48.77949" lon="2.09538">
        <ele>121.8</ele>
        <time>2020-05-17T08:16:12Z</time>
      </trkpt>
      <trkpt lat="48.77956" lon="2.09529">
        <ele>119.87</ele>
        <time>2020-05-17T08:16:31Z</time>
      </trkpt>
      <trkpt lat="48.77953" lon="2.09519">
        <ele>118.64</ele>
        <time>2020-05-17T08:16:48Z</time>
      </trkpt>
      <trkpt lat="48.77946" lon="2.09496">
        <ele>119.51</ele>
        <time>2020-05-17T08:17:08Z</time>
      </trkpt>
      <trkpt lat="48.77945" lon="2.09493">
        <ele>119.71</ele>
        <time>2020-05-17T08:17:10Z</time>
      </trkpt>
      <trkpt lat="48.77941" lon="2.09473">
        <ele>119.45</ele>
        <time>2020-05-17T08:17:29Z</time>
      </trkpt>
      <trkpt lat="48.77941" lon="2.09468">
        <ele>119.42</ele>
        <time>2020-05-17T08:17:34Z</time>
      </trkpt>
      <trkpt lat="48.77932" lon="2.0944">
        <ele>119.33</ele>
        <time>2020-05-17T08:17:53Z</time>
      </trkpt>
      <trkpt lat="48.7793" lon="2.09419">
        <ele>120.41</ele>
        <time>2020-05-17T08:18:14Z</time>
      </trkpt>
      <trkpt lat="48.77924" lon="2.0939">
        <ele>120.05</ele>
        <time>2020-05-17T08:18:33Z</time>
      </trkpt>
      <trkpt lat="48.77916" lon="2.09361">
        <ele>120.04</ele>
        <time>2020-05-17T08:18:51Z</time>
      </trkpt>
      <trkpt lat="48.77907" lon="2.09332">
        <ele>119.98</ele>
        <time>2020-05-17T08:19:10Z</time>
      </trkpt>
      <trkpt lat="48.77903" lon="2.093">
        <ele>118.71</ele>
        <time>2020-05-17T08:19:30Z</time>
      </trkpt>
      <trkpt lat="48.779" lon="2.09267">
        <ele>117.63</ele>
        <time>2020-05-17T08:19:47Z</time>
      </trkpt>
      <trkpt lat="48.77899" lon="2.0926">
        <ele>117.62</ele>
        <time>2020-05-17T08:19:50Z</time>
      </trkpt>
      <trkpt lat="48.77906" lon="2.09234">
        <ele>117.52</ele>
        <time>2020-05-17T08:20:09Z</time>
      </trkpt>
      <trkpt lat="48.77914" lon="2.09214">
        <ele>116.73</ele>
        <time>2020-05-17T08:20:30Z</time>
      </trkpt>
      <trkpt lat="48.77934" lon="2.09206">
        <ele>116.29</ele>
        <time>2020-05-17T08:20:49Z</time>
      </trkpt>
      <trkpt lat="48.77944" lon="2.09187">
        <ele>116.02</ele>
        <time>2020-05-17T08:21:10Z</time>
      </trkpt>
      <trkpt lat="48.7795" lon="2.09162">
        <ele>116.33</ele>
        <time>2020-05-17T08:21:28Z</time>
      </trkpt>
      <trkpt lat="48.7795" lon="2.09155">
        <ele>114.94</ele>
        <time>2020-05-17T08:21:33Z</time>
      </trkpt>
      <trkpt lat="48.77955" lon="2.09139">
        <ele>115.13</ele>
        <time>2020-05-17T08:21:44Z</time>
      </trkpt>
      <trkpt lat="48.77957" lon="2.09134">
        <ele>114.57</ele>
        <time>2020-05-17T08:21:46Z</time>
      </trkpt>
      <trkpt lat="48.77964" lon="2.09108">
        <ele>114.83</ele>
        <time>2020-05-17T08:22:04Z</time>
      </trkpt>
      <trkpt lat="48.77975" lon="2.09085">
        <ele>113.91</ele>
        <time>2020-05-17T08:22:20Z</time>
      </trkpt>
      <trkpt lat="48.77989" lon="2.09064">
        <ele>113.65</ele>
        <time>2020-05-17T08:22:37Z</time>
      </trkpt>
      <trkpt lat="48.78009" lon="2.09042">
        <ele>113.7</ele>
        <time>2020-05-17T08:22:55Z</time>
      </trkpt>
      <trkpt lat="48.78026" lon="2.09024">
        <ele>113.15</ele>
        <time>2020-05-17T08:23:11Z</time>
      </trkpt>
      <trkpt lat="48.78041" lon="2.09005">
        <ele>113.27</ele>
        <time>2020-05-17T08:23:30Z</time>
      </trkpt>
      <trkpt lat="48.78049" lon="2.08993">
        <ele>113.44</ele>
        <time>2020-05-17T08:23:42Z</time>
      </trkpt>
      <trkpt lat="48.7807" lon="2.08967">
        <ele>113.39</ele>
        <time>2020-05-17T08:24:02Z</time>
      </trkpt>
      <trkpt lat="48.78084" lon="2.08957">
        <ele>113.6</ele>
        <time>2020-05-17T08:24:15Z</time>
      </trkpt>
      <trkpt lat="48.78095" lon="2.08946">
        <ele>113.44</ele>
        <time>2020-05-17T08:24:34Z</time>
      </trkpt>
      <trkpt lat="48.78098" lon="2.08943">
        <ele>113.14</ele>
        <time>2020-05-17T08:24:38Z</time>
      </trkpt>
      <trkpt lat="48.78113" lon="2.0893">
        <ele>113.39</ele>
        <time>2020-05-17T08:24:55Z</time>
      </trkpt>
      <trkpt lat="48.78123" lon="2.08923">
        <ele>112.87</ele>
        <time>2020-05-17T08:25:08Z</time>
      </trkpt>
      <trkpt lat="48.78127" lon="2.08911">
        <ele>113.78</ele>
        <time>2020-05-17T08:25:25Z</time>
      </trkpt>
      <trkpt lat="48.78124" lon="2.08904">
        <ele>114.18</ele>
        <time>2020-05-17T08:25:35Z</time>
      </trkpt>
      <trkpt lat="48.78121" lon="2.08901">
        <ele>115.26</ele>
        <time>2020-05-17T08:25:38Z</time>
      </trkpt>
      <trkpt lat="48.78119" lon="2.08888">
        <ele>114.65</ele>
        <time>2020-05-17T08:25:48Z</time>
      </trkpt>
      <trkpt lat="48.78117" lon="2.08884">
        <ele>115.05</ele>
        <time>2020-05-17T08:25:51Z</time>
      </trkpt>
      <trkpt lat="48.78111" lon="2.08869">
        <ele>115.38</ele>
        <time>2020-05-17T08:26:05Z</time>
      </trkpt>
      <trkpt lat="48.781" lon="2.08848">
        <ele>116.13</ele>
        <time>2020-05-17T08:26:21Z</time>
      </trkpt>
      <trkpt lat="48.78097" lon="2.08834">
        <ele>117.3</ele>
        <time>2020-05-17T08:26:37Z</time>
      </trkpt>
      <trkpt lat="48.78096" lon="2.08819">
        <ele>118.37</ele>
        <time>2020-05-17T08:26:49Z</time>
      </trkpt>
      <trkpt lat="48.7809" lon="2.088">
        <ele>119.16</ele>
        <time>2020-05-17T08:27:03Z</time>
      </trkpt>
      <trkpt lat="48.78087" lon="2.0877">
        <ele>120</ele>
        <time>2020-05-17T08:27:18Z</time>
      </trkpt>
      <trkpt lat="48.78073" lon="2.08747">
        <ele>120.14</ele>
        <time>2020-05-17T08:27:35Z</time>
      </trkpt>
      <trkpt lat="48.7806" lon="2.08734">
        <ele>119.39</ele>
        <time>2020-05-17T08:27:54Z</time>
      </trkpt>
      <trkpt lat="48.78055" lon="2.0872">
        <ele>119.55</ele>
        <time>2020-05-17T08:28:08Z</time>
      </trkpt>
      <trkpt lat="48.78055" lon="2.08694">
        <ele>119.1</ele>
        <time>2020-05-17T08:28:23Z</time>
      </trkpt>
      <trkpt lat="48.78059" lon="2.08671">
        <ele>118.79</ele>
        <time>2020-05-17T08:28:42Z</time>
      </trkpt>
      <trkpt lat="48.78056" lon="2.08661">
        <ele>120.46</ele>
        <time>2020-05-17T08:29:02Z</time>
      </trkpt>
      <trkpt lat="48.78057" lon="2.08648">
        <ele>120.11</ele>
        <time>2020-05-17T08:29:20Z</time>
      </trkpt>
      <trkpt lat="48.78061" lon="2.08629">
        <ele>119.69</ele>
        <time>2020-05-17T08:29:38Z</time>
      </trkpt>
      <trkpt lat="48.78068" lon="2.08606">
        <ele>120.19</ele>
        <time>2020-05-17T08:30:00Z</time>
      </trkpt>
      <trkpt lat="48.78081" lon="2.08579">
        <ele>120.08</ele>
        <time>2020-05-17T08:30:21Z</time>
      </trkpt>
      <trkpt lat="48.78092" lon="2.08557">
        <ele>121.25</ele>
        <time>2020-05-17T08:30:40Z</time>
      </trkpt>
      <trkpt lat="48.78102" lon="2.08536">
        <ele>120.08</ele>
        <time>2020-05-17T08:30:56Z</time>
      </trkpt>
      <trkpt lat="48.78103" lon="2.08507">
        <ele>119.7</ele>
        <time>2020-05-17T08:31:15Z</time>
      </trkpt>
      <trkpt lat="48.78104" lon="2.08503">
        <ele>119.4</ele>
        <time>2020-05-17T08:31:21Z</time>
      </trkpt>
      <trkpt lat="48.78107" lon="2.08501">
        <ele>119.66</ele>
        <time>2020-05-17T08:31:24Z</time>
      </trkpt>
      <trkpt lat="48.78108" lon="2.08501">
        <ele>119.68</ele>
        <time>2020-05-17T08:31:26Z</time>
      </trkpt>
      <trkpt lat="48.78111" lon="2.08491">
        <ele>119.8</ele>
        <time>2020-05-17T08:31:46Z</time>
      </trkpt>
      <trkpt lat="48.78109" lon="2.08465">
        <ele>121.69</ele>
        <time>2020-05-17T08:32:08Z</time>
      </trkpt>
      <trkpt lat="48.78113" lon="2.08447">
        <ele>122.6</ele>
        <time>2020-05-17T08:32:25Z</time>
      </trkpt>
      <trkpt lat="48.78115" lon="2.08444">
        <ele>123</ele>
        <time>2020-05-17T08:32:28Z</time>
      </trkpt>
      <trkpt lat="48.78123" lon="2.08411">
        <ele>124.64</ele>
        <time>2020-05-17T08:32:48Z</time>
      </trkpt>
      <trkpt lat="48.7813" lon="2.08388">
        <ele>126.75</ele>
        <time>2020-05-17T08:33:05Z</time>
      </trkpt>
      <trkpt lat="48.78133" lon="2.08381">
        <ele>126.33</ele>
        <time>2020-05-17T08:33:11Z</time>
      </trkpt>
      <trkpt lat="48.78135" lon="2.08378">
        <ele>126.37</ele>
        <time>2020-05-17T08:33:32Z</time>
      </trkpt>
      <trkpt lat="48.78137" lon="2.08382">
        <ele>126.03</ele>
        <time>2020-05-17T08:33:56Z</time>
      </trkpt>
      <trkpt lat="48.78139" lon="2.08384">
        <ele>125.95</ele>
        <time>2020-05-17T08:34:21Z</time>
      </trkpt>
      <trkpt lat="48.78141" lon="2.08388">
        <ele>125.74</ele>
        <time>2020-05-17T08:34:49Z</time>
      </trkpt>
      <trkpt lat="48.7814" lon="2.08387">
        <ele>125.79</ele>
        <time>2020-05-17T08:35:14Z</time>
      </trkpt>
      <trkpt lat="48.78142" lon="2.08381">
        <ele>125.71</ele>
        <time>2020-05-17T08:35:41Z</time>
      </trkpt>
      <trkpt lat="48.78144" lon="2.08379">
        <ele>126.56</ele>
        <time>2020-05-17T08:36:01Z</time>
      </trkpt>
      <trkpt lat="48.78142" lon="2.08364">
        <ele>128.55</ele>
        <time>2020-05-17T08:36:22Z</time>
      </trkpt>
      <trkpt lat="48.78141" lon="2.08347">
        <ele>131.74</ele>
        <time>2020-05-17T08:36:41Z</time>
      </trkpt>
      <trkpt lat="48.78145" lon="2.08324">
        <ele>134.62</ele>
        <time>2020-05-17T08:37:01Z</time>
      </trkpt>
      <trkpt lat="48.78154" lon="2.08308">
        <ele>134.56</ele>
        <time>2020-05-17T08:37:20Z</time>
      </trkpt>
      <trkpt lat="48.78162" lon="2.08293">
        <ele>134.97</ele>
        <time>2020-05-17T08:37:43Z</time>
      </trkpt>
      <trkpt lat="48.78168" lon="2.08272">
        <ele>135.79</ele>
        <time>2020-05-17T08:38:03Z</time>
      </trkpt>
      <trkpt lat="48.78174" lon="2.08252">
        <ele>135.43</ele>
        <time>2020-05-17T08:38:22Z</time>
      </trkpt>
      <trkpt lat="48.78179" lon="2.08223">
        <ele>136.14</ele>
        <time>2020-05-17T08:38:41Z</time>
      </trkpt>
      <trkpt lat="48.78188" lon="2.08193">
        <ele>135.75</ele>
        <time>2020-05-17T08:39:03Z</time>
      </trkpt>
      <trkpt lat="48.78196" lon="2.08169">
        <ele>136.27</ele>
        <time>2020-05-17T08:39:24Z</time>
      </trkpt>
      <trkpt lat="48.78196" lon="2.08145">
        <ele>136.07</ele>
        <time>2020-05-17T08:39:43Z</time>
      </trkpt>
      <trkpt lat="48.78201" lon="2.08131">
        <ele>135.51</ele>
        <time>2020-05-17T08:39:53Z</time>
      </trkpt>
      <trkpt lat="48.78211" lon="2.08101">
        <ele>135.55</ele>
        <time>2020-05-17T08:40:14Z</time>
      </trkpt>
      <trkpt lat="48.78218" lon="2.08077">
        <ele>135.28</ele>
        <time>2020-05-17T08:40:31Z</time>
      </trkpt>
      <trkpt lat="48.7822" lon="2.08074">
        <ele>134.89</ele>
        <time>2020-05-17T08:40:34Z</time>
      </trkpt>
      <trkpt lat="48.7823" lon="2.08058">
        <ele>135.23</ele>
        <time>2020-05-17T08:40:48Z</time>
      </trkpt>
      <trkpt lat="48.78234" lon="2.08047">
        <ele>134.78</ele>
        <time>2020-05-17T08:40:57Z</time>
      </trkpt>
      <trkpt lat="48.7824" lon="2.08029">
        <ele>134.4</ele>
        <time>2020-05-17T08:41:10Z</time>
      </trkpt>
      <trkpt lat="48.7824" lon="2.08026">
        <ele>134.33</ele>
        <time>2020-05-17T08:41:12Z</time>
      </trkpt>
      <trkpt lat="48.7824" lon="2.08019">
        <ele>134.45</ele>
        <time>2020-05-17T08:41:17Z</time>
      </trkpt>
      <trkpt lat="48.78239" lon="2.08006">
        <ele>134.17</ele>
        <time>2020-05-17T08:41:24Z</time>
      </trkpt>
      <trkpt lat="48.78238" lon="2.07991">
        <ele>134.3</ele>
        <time>2020-05-17T08:41:32Z</time>
      </trkpt>
      <trkpt lat="48.78232" lon="2.07962">
        <ele>134.06</ele>
        <time>2020-05-17T08:41:50Z</time>
      </trkpt>
      <trkpt lat="48.78232" lon="2.07959">
        <ele>133.55</ele>
        <time>2020-05-17T08:41:52Z</time>
      </trkpt>
      <trkpt lat="48.7823" lon="2.07938">
        <ele>133.12</ele>
        <time>2020-05-17T08:42:05Z</time>
      </trkpt>
      <trkpt lat="48.7823" lon="2.07937">
        <ele>133.13</ele>
        <time>2020-05-17T08:42:06Z</time>
      </trkpt>
      <trkpt lat="48.78233" lon="2.07919">
        <ele>131.47</ele>
        <time>2020-05-17T08:42:20Z</time>
      </trkpt>
      <trkpt lat="48.78237" lon="2.07898">
        <ele>129.87</ele>
        <time>2020-05-17T08:42:40Z</time>
      </trkpt>
      <trkpt lat="48.78241" lon="2.07879">
        <ele>128.52</ele>
        <time>2020-05-17T08:42:59Z</time>
      </trkpt>
      <trkpt lat="48.78243" lon="2.07856">
        <ele>128.15</ele>
        <time>2020-05-17T08:43:19Z</time>
      </trkpt>
      <trkpt lat="48.78242" lon="2.07833">
        <ele>128.3</ele>
        <time>2020-05-17T08:43:38Z</time>
      </trkpt>
      <trkpt lat="48.78239" lon="2.07809">
        <ele>128.07</ele>
        <time>2020-05-17T08:44:00Z</time>
      </trkpt>
      <trkpt lat="48.78239" lon="2.07789">
        <ele>127.61</ele>
        <time>2020-05-17T08:44:17Z</time>
      </trkpt>
      <trkpt lat="48.78238" lon="2.07775">
        <ele>127.45</ele>
        <time>2020-05-17T08:44:37Z</time>
      </trkpt>
      <trkpt lat="48.78228" lon="2.07757">
        <ele>126.19</ele>
        <time>2020-05-17T08:44:56Z</time>
      </trkpt>
      <trkpt lat="48.78221" lon="2.0775">
        <ele>126.56</ele>
        <time>2020-05-17T08:45:03Z</time>
      </trkpt>
      <trkpt lat="48.78216" lon="2.07735">
        <ele>126.36</ele>
        <time>2020-05-17T08:45:20Z</time>
      </trkpt>
      <trkpt lat="48.78209" lon="2.07727">
        <ele>125.91</ele>
        <time>2020-05-17T08:45:32Z</time>
      </trkpt>
      <trkpt lat="48.78205" lon="2.07719">
        <ele>126.17</ele>
        <time>2020-05-17T08:45:40Z</time>
      </trkpt>
      <trkpt lat="48.78198" lon="2.07707">
        <ele>126.14</ele>
        <time>2020-05-17T08:46:02Z</time>
      </trkpt>
      <trkpt lat="48.7819" lon="2.07702">
        <ele>126.67</ele>
        <time>2020-05-17T08:46:24Z</time>
      </trkpt>
      <trkpt lat="48.78187" lon="2.07701">
        <ele>127.34</ele>
        <time>2020-05-17T08:46:29Z</time>
      </trkpt>
      <trkpt lat="48.78185" lon="2.077">
        <ele>127.52</ele>
        <time>2020-05-17T08:46:31Z</time>
      </trkpt>
      <trkpt lat="48.78183" lon="2.07701">
        <ele>128.03</ele>
        <time>2020-05-17T08:46:34Z</time>
      </trkpt>
      <trkpt lat="48.78156" lon="2.07683">
        <ele>128.7</ele>
        <time>2020-05-17T08:46:53Z</time>
      </trkpt>
      <trkpt lat="48.78147" lon="2.07676">
        <ele>130.31</ele>
        <time>2020-05-17T08:47:13Z</time>
      </trkpt>
      <trkpt lat="48.78147" lon="2.07665">
        <ele>128.96</ele>
        <time>2020-05-17T08:47:37Z</time>
      </trkpt>
      <trkpt lat="48.78145" lon="2.07659">
        <ele>129.79</ele>
        <time>2020-05-17T08:47:54Z</time>
      </trkpt>
      <trkpt lat="48.78143" lon="2.07644">
        <ele>129.6</ele>
        <time>2020-05-17T08:48:14Z</time>
      </trkpt>
      <trkpt lat="48.78141" lon="2.07635">
        <ele>128.78</ele>
        <time>2020-05-17T08:48:30Z</time>
      </trkpt>
      <trkpt lat="48.78139" lon="2.07631">
        <ele>128.91</ele>
        <time>2020-05-17T08:48:34Z</time>
      </trkpt>
      <trkpt lat="48.78135" lon="2.07624">
        <ele>129.5</ele>
        <time>2020-05-17T08:48:41Z</time>
      </trkpt>
      <trkpt lat="48.78132" lon="2.07609">
        <ele>130.47</ele>
        <time>2020-05-17T08:48:58Z</time>
      </trkpt>
      <trkpt lat="48.78124" lon="2.07589">
        <ele>130.63</ele>
        <time>2020-05-17T08:49:13Z</time>
      </trkpt>
      <trkpt lat="48.78124" lon="2.07588">
        <ele>130.57</ele>
        <time>2020-05-17T08:49:14Z</time>
      </trkpt>
      <trkpt lat="48.78122" lon="2.07585">
        <ele>130.9</ele>
        <time>2020-05-17T08:49:18Z</time>
      </trkpt>
      <trkpt lat="48.78113" lon="2.07572">
        <ele>129.66</ele>
        <time>2020-05-17T08:49:36Z</time>
      </trkpt>
      <trkpt lat="48.78108" lon="2.07561">
        <ele>129.58</ele>
        <time>2020-05-17T08:49:45Z</time>
      </trkpt>
      <trkpt lat="48.781" lon="2.0755">
        <ele>128.82</ele>
        <time>2020-05-17T08:49:53Z</time>
      </trkpt>
      <trkpt lat="48.78098" lon="2.07535">
        <ele>129.4</ele>
        <time>2020-05-17T08:50:09Z</time>
      </trkpt>
      <trkpt lat="48.78097" lon="2.07534">
        <ele>130.14</ele>
        <time>2020-05-17T08:50:11Z</time>
      </trkpt>
      <trkpt lat="48.78095" lon="2.07528">
        <ele>129.88</ele>
        <time>2020-05-17T08:50:17Z</time>
      </trkpt>
      <trkpt lat="48.78094" lon="2.07519">
        <ele>130.41</ele>
        <time>2020-05-17T08:50:27Z</time>
      </trkpt>
      <trkpt lat="48.78089" lon="2.07511">
        <ele>131.37</ele>
        <time>2020-05-17T08:50:32Z</time>
      </trkpt>
      <trkpt lat="48.78088" lon="2.07503">
        <ele>131.52</ele>
        <time>2020-05-17T08:50:37Z</time>
      </trkpt>
      <trkpt lat="48.78087" lon="2.075">
        <ele>130.87</ele>
        <time>2020-05-17T08:50:40Z</time>
      </trkpt>
      <trkpt lat="48.78068" lon="2.07467">
        <ele>131.07</ele>
        <time>2020-05-17T08:51:01Z</time>
      </trkpt>
      <trkpt lat="48.78062" lon="2.07453">
        <ele>131</ele>
        <time>2020-05-17T08:51:16Z</time>
      </trkpt>
      <trkpt lat="48.78063" lon="2.07432">
        <ele>131.06</ele>
        <time>2020-05-17T08:51:33Z</time>
      </trkpt>
      <trkpt lat="48.78062" lon="2.07427">
        <ele>131.16</ele>
        <time>2020-05-17T08:51:37Z</time>
      </trkpt>
      <trkpt lat="48.78058" lon="2.07414">
        <ele>130.48</ele>
        <time>2020-05-17T08:51:46Z</time>
      </trkpt>
      <trkpt lat="48.78033" lon="2.07371">
        <ele>131.24</ele>
        <time>2020-05-17T08:52:03Z</time>
      </trkpt>
      <trkpt lat="48.78028" lon="2.07361">
        <ele>130.87</ele>
        <time>2020-05-17T08:52:10Z</time>
      </trkpt>
      <trkpt lat="48.78018" lon="2.07353">
        <ele>131.1</ele>
        <time>2020-05-17T08:52:15Z</time>
      </trkpt>
      <trkpt lat="48.78009" lon="2.0734">
        <ele>131.01</ele>
        <time>2020-05-17T08:52:35Z</time>
      </trkpt>
      <trkpt lat="48.77996" lon="2.07321">
        <ele>132.19</ele>
        <time>2020-05-17T08:52:55Z</time>
      </trkpt>
      <trkpt lat="48.77987" lon="2.07307">
        <ele>131.83</ele>
        <time>2020-05-17T08:53:15Z</time>
      </trkpt>
      <trkpt lat="48.77976" lon="2.07285">
        <ele>132.15</ele>
        <time>2020-05-17T08:53:33Z</time>
      </trkpt>
      <trkpt lat="48.77974" lon="2.0728">
        <ele>132.13</ele>
        <time>2020-05-17T08:53:38Z</time>
      </trkpt>
      <trkpt lat="48.7797" lon="2.07261">
        <ele>132.98</ele>
        <time>2020-05-17T08:53:58Z</time>
      </trkpt>
      <trkpt lat="48.77957" lon="2.07229">
        <ele>133.25</ele>
        <time>2020-05-17T08:54:16Z</time>
      </trkpt>
      <trkpt lat="48.77951" lon="2.0722">
        <ele>133.19</ele>
        <time>2020-05-17T08:54:33Z</time>
      </trkpt>
      <trkpt lat="48.7795" lon="2.07216">
        <ele>133.26</ele>
        <time>2020-05-17T08:54:40Z</time>
      </trkpt>
      <trkpt lat="48.77944" lon="2.0719">
        <ele>133.49</ele>
        <time>2020-05-17T08:54:59Z</time>
      </trkpt>
      <trkpt lat="48.77934" lon="2.0717">
        <ele>133.79</ele>
        <time>2020-05-17T08:55:16Z</time>
      </trkpt>
      <trkpt lat="48.77928" lon="2.07153">
        <ele>133.69</ele>
        <time>2020-05-17T08:55:34Z</time>
      </trkpt>
      <trkpt lat="48.77927" lon="2.07127">
        <ele>133.61</ele>
        <time>2020-05-17T08:55:52Z</time>
      </trkpt>
      <trkpt lat="48.77924" lon="2.07099">
        <ele>133.22</ele>
        <time>2020-05-17T08:56:08Z</time>
      </trkpt>
      <trkpt lat="48.77922" lon="2.07088">
        <ele>133.45</ele>
        <time>2020-05-17T08:56:22Z</time>
      </trkpt>
      <trkpt lat="48.77921" lon="2.07082">
        <ele>133.59</ele>
        <time>2020-05-17T08:56:27Z</time>
      </trkpt>
      <trkpt lat="48.77927" lon="2.07059">
        <ele>132.84</ele>
        <time>2020-05-17T08:56:46Z</time>
      </trkpt>
      <trkpt lat="48.77926" lon="2.07035">
        <ele>132.68</ele>
        <time>2020-05-17T08:57:07Z</time>
      </trkpt>
      <trkpt lat="48.77927" lon="2.07029">
        <ele>132.23</ele>
        <time>2020-05-17T08:57:12Z</time>
      </trkpt>
      <trkpt lat="48.77925" lon="2.07014">
        <ele>132.29</ele>
        <time>2020-05-17T08:57:24Z</time>
      </trkpt>
      <trkpt lat="48.77923" lon="2.07008">
        <ele>132.69</ele>
        <time>2020-05-17T08:57:28Z</time>
      </trkpt>
      <trkpt lat="48.77922" lon="2.07005">
        <ele>132.39</ele>
        <time>2020-05-17T08:57:30Z</time>
      </trkpt>
      <trkpt lat="48.77924" lon="2.07002">
        <ele>132.27</ele>
        <time>2020-05-17T08:57:33Z</time>
      </trkpt>
      <trkpt lat="48.77922" lon="2.06989">
        <ele>132.22</ele>
        <time>2020-05-17T08:57:45Z</time>
      </trkpt>
      <trkpt lat="48.77914" lon="2.06963">
        <ele>131.65</ele>
        <time>2020-05-17T08:58:00Z</time>
      </trkpt>
      <trkpt lat="48.77905" lon="2.06938">
        <ele>131.25</ele>
        <time>2020-05-17T08:58:24Z</time>
      </trkpt>
      <trkpt lat="48.77894" lon="2.06912">
        <ele>130.64</ele>
        <time>2020-05-17T08:58:45Z</time>
      </trkpt>
      <trkpt lat="48.77881" lon="2.06898">
        <ele>131.31</ele>
        <time>2020-05-17T08:58:51Z</time>
      </trkpt>
      <trkpt lat="48.77875" lon="2.06881">
        <ele>130.58</ele>
        <time>2020-05-17T08:59:08Z</time>
      </trkpt>
      <trkpt lat="48.77872" lon="2.0687">
        <ele>130.11</ele>
        <time>2020-05-17T08:59:26Z</time>
      </trkpt>
      <trkpt lat="48.77871" lon="2.0685">
        <ele>128.78</ele>
        <time>2020-05-17T08:59:49Z</time>
      </trkpt>
      <trkpt lat="48.77865" lon="2.06835">
        <ele>128.77</ele>
        <time>2020-05-17T09:00:04Z</time>
      </trkpt>
      <trkpt lat="48.77862" lon="2.06831">
        <ele>128.43</ele>
        <time>2020-05-17T09:00:26Z</time>
      </trkpt>
      <trkpt lat="48.77872" lon="2.06836">
        <ele>128.13</ele>
        <time>2020-05-17T09:00:45Z</time>
      </trkpt>
      <trkpt lat="48.77883" lon="2.06841">
        <ele>127.48</ele>
        <time>2020-05-17T09:01:01Z</time>
      </trkpt>
      <trkpt lat="48.77896" lon="2.0684">
        <ele>126.53</ele>
        <time>2020-05-17T09:01:17Z</time>
      </trkpt>
      <trkpt lat="48.77899" lon="2.06834">
        <ele>125.76</ele>
        <time>2020-05-17T09:01:41Z</time>
      </trkpt>
      <trkpt lat="48.77898" lon="2.06829">
        <ele>125.29</ele>
        <time>2020-05-17T09:01:50Z</time>
      </trkpt>
      <trkpt lat="48.77887" lon="2.06825">
        <ele>125.36</ele>
        <time>2020-05-17T09:02:14Z</time>
      </trkpt>
      <trkpt lat="48.77879" lon="2.06814">
        <ele>123.79</ele>
        <time>2020-05-17T09:02:33Z</time>
      </trkpt>
      <trkpt lat="48.77871" lon="2.06801">
        <ele>124</ele>
        <time>2020-05-17T09:02:52Z</time>
      </trkpt>
      <trkpt lat="48.77862" lon="2.06784">
        <ele>124.51</ele>
        <time>2020-05-17T09:03:08Z</time>
      </trkpt>
      <trkpt lat="48.77861" lon="2.06782">
        <ele>124.36</ele>
        <time>2020-05-17T09:03:11Z</time>
      </trkpt>
      <trkpt lat="48.77851" lon="2.06762">
        <ele>124.68</ele>
        <time>2020-05-17T09:03:30Z</time>
      </trkpt>
      <trkpt lat="48.77834" lon="2.06738">
        <ele>125.64</ele>
        <time>2020-05-17T09:03:51Z</time>
      </trkpt>
      <trkpt lat="48.77821" lon="2.06706">
        <ele>125.19</ele>
        <time>2020-05-17T09:04:09Z</time>
      </trkpt>
      <trkpt lat="48.77819" lon="2.06695">
        <ele>122.16</ele>
        <time>2020-05-17T09:04:27Z</time>
      </trkpt>
      <trkpt lat="48.77817" lon="2.06672">
        <ele>119.08</ele>
        <time>2020-05-17T09:04:46Z</time>
      </trkpt>
      <trkpt lat="48.77815" lon="2.0666">
        <ele>118.27</ele>
        <time>2020-05-17T09:04:53Z</time>
      </trkpt>
      <trkpt lat="48.77816" lon="2.06643">
        <ele>117.89</ele>
        <time>2020-05-17T09:05:10Z</time>
      </trkpt>
      <trkpt lat="48.77811" lon="2.06631">
        <ele>116.55</ele>
        <time>2020-05-17T09:05:25Z</time>
      </trkpt>
      <trkpt lat="48.77809" lon="2.06608">
        <ele>115.42</ele>
        <time>2020-05-17T09:05:39Z</time>
      </trkpt>
      <trkpt lat="48.77806" lon="2.0659">
        <ele>113.82</ele>
        <time>2020-05-17T09:06:00Z</time>
      </trkpt>
      <trkpt lat="48.77806" lon="2.0659">
        <ele>113.85</ele>
        <time>2020-05-17T09:06:01Z</time>
      </trkpt>
      <trkpt lat="48.77806" lon="2.06574">
        <ele>112.88</ele>
        <time>2020-05-17T09:06:22Z</time>
      </trkpt>
      <trkpt lat="48.77806" lon="2.06573">
        <ele>112.56</ele>
        <time>2020-05-17T09:06:24Z</time>
      </trkpt>
      <trkpt lat="48.7782" lon="2.06556">
        <ele>109.2</ele>
        <time>2020-05-17T09:06:46Z</time>
      </trkpt>
      <trkpt lat="48.77833" lon="2.06529">
        <ele>109</ele>
        <time>2020-05-17T09:07:04Z</time>
      </trkpt>
      <trkpt lat="48.77847" lon="2.06515">
        <ele>108.52</ele>
        <time>2020-05-17T09:07:24Z</time>
      </trkpt>
      <trkpt lat="48.77862" lon="2.06499">
        <ele>108.87</ele>
        <time>2020-05-17T09:07:44Z</time>
      </trkpt>
      <trkpt lat="48.77874" lon="2.06483">
        <ele>109.56</ele>
        <time>2020-05-17T09:08:00Z</time>
      </trkpt>
      <trkpt lat="48.77885" lon="2.06476">
        <ele>108.89</ele>
        <time>2020-05-17T09:08:09Z</time>
      </trkpt>
      <trkpt lat="48.77896" lon="2.06483">
        <ele>109.99</ele>
        <time>2020-05-17T09:08:24Z</time>
      </trkpt>
      <trkpt lat="48.77898" lon="2.06481">
        <ele>109.44</ele>
        <time>2020-05-17T09:08:43Z</time>
      </trkpt>
      <trkpt lat="48.77904" lon="2.06493">
        <ele>110.52</ele>
        <time>2020-05-17T09:09:01Z</time>
      </trkpt>
      <trkpt lat="48.77911" lon="2.06507">
        <ele>110.34</ele>
        <time>2020-05-17T09:09:16Z</time>
      </trkpt>
      <trkpt lat="48.77915" lon="2.06514">
        <ele>110.47</ele>
        <time>2020-05-17T09:09:23Z</time>
      </trkpt>
      <trkpt lat="48.77921" lon="2.06529">
        <ele>110.25</ele>
        <time>2020-05-17T09:09:37Z</time>
      </trkpt>
      <trkpt lat="48.77928" lon="2.06551">
        <ele>110.99</ele>
        <time>2020-05-17T09:09:57Z</time>
      </trkpt>
      <trkpt lat="48.77938" lon="2.06574">
        <ele>111.6</ele>
        <time>2020-05-17T09:10:17Z</time>
      </trkpt>
      <trkpt lat="48.77944" lon="2.06589">
        <ele>111.67</ele>
        <time>2020-05-17T09:10:34Z</time>
      </trkpt>
      <trkpt lat="48.77942" lon="2.06595">
        <ele>109.14</ele>
        <time>2020-05-17T09:10:49Z</time>
      </trkpt>
      <trkpt lat="48.77942" lon="2.06611">
        <ele>107.78</ele>
        <time>2020-05-17T09:11:09Z</time>
      </trkpt>
      <trkpt lat="48.77943" lon="2.06637">
        <ele>106.82</ele>
        <time>2020-05-17T09:11:28Z</time>
      </trkpt>
      <trkpt lat="48.77944" lon="2.06658">
        <ele>106.45</ele>
        <time>2020-05-17T09:11:47Z</time>
      </trkpt>
      <trkpt lat="48.77946" lon="2.06669">
        <ele>106.33</ele>
        <time>2020-05-17T09:12:08Z</time>
      </trkpt>
      <trkpt lat="48.77946" lon="2.06671">
        <ele>106.4</ele>
        <time>2020-05-17T09:12:15Z</time>
      </trkpt>
      <trkpt lat="48.77946" lon="2.06679">
        <ele>106.5</ele>
        <time>2020-05-17T09:12:38Z</time>
      </trkpt>
      <trkpt lat="48.77951" lon="2.06695">
        <ele>106.05</ele>
        <time>2020-05-17T09:12:58Z</time>
      </trkpt>
      <trkpt lat="48.77962" lon="2.0671">
        <ele>105.1</ele>
        <time>2020-05-17T09:13:17Z</time>
      </trkpt>
      <trkpt lat="48.77975" lon="2.06724">
        <ele>106.36</ele>
        <time>2020-05-17T09:13:36Z</time>
      </trkpt>
      <trkpt lat="48.77993" lon="2.06735">
        <ele>106.07</ele>
        <time>2020-05-17T09:13:58Z</time>
      </trkpt>
      <trkpt lat="48.77997" lon="2.06739">
        <ele>105.88</ele>
        <time>2020-05-17T09:14:03Z</time>
      </trkpt>
      <trkpt lat="48.78001" lon="2.06742">
        <ele>105.46</ele>
        <time>2020-05-17T09:14:08Z</time>
      </trkpt>
      <trkpt lat="48.78004" lon="2.06745">
        <ele>105.43</ele>
        <time>2020-05-17T09:14:15Z</time>
      </trkpt>
      <trkpt lat="48.78005" lon="2.06753">
        <ele>106.26</ele>
        <time>2020-05-17T09:14:39Z</time>
      </trkpt>
      <trkpt lat="48.78012" lon="2.0676">
        <ele>106.07</ele>
        <time>2020-05-17T09:15:03Z</time>
      </trkpt>
      <trkpt lat="48.78011" lon="2.0676">
        <ele>105.77</ele>
        <time>2020-05-17T09:15:04Z</time>
      </trkpt>
      <trkpt lat="48.78021" lon="2.06772">
        <ele>105.29</ele>
        <time>2020-05-17T09:15:29Z</time>
      </trkpt>
      <trkpt lat="48.78034" lon="2.06787">
        <ele>105.73</ele>
        <time>2020-05-17T09:15:50Z</time>
      </trkpt>
      <trkpt lat="48.78039" lon="2.06798">
        <ele>105.6</ele>
        <time>2020-05-17T09:16:01Z</time>
      </trkpt>
      <trkpt lat="48.78041" lon="2.06807">
        <ele>105.82</ele>
        <time>2020-05-17T09:16:28Z</time>
      </trkpt>
      <trkpt lat="48.78042" lon="2.06806">
        <ele>105.27</ele>
        <time>2020-05-17T09:16:50Z</time>
      </trkpt>
      <trkpt lat="48.78043" lon="2.06808">
        <ele>105.33</ele>
        <time>2020-05-17T09:17:21Z</time>
      </trkpt>
      <trkpt lat="48.78054" lon="2.06815">
        <ele>106.25</ele>
        <time>2020-05-17T09:17:40Z</time>
      </trkpt>
      <trkpt lat="48.78069" lon="2.0683">
        <ele>105.81</ele>
        <time>2020-05-17T09:17:58Z</time>
      </trkpt>
      <trkpt lat="48.78078" lon="2.06849">
        <ele>105.63</ele>
        <time>2020-05-17T09:18:16Z</time>
      </trkpt>
      <trkpt lat="48.78092" lon="2.06868">
        <ele>105.54</ele>
        <time>2020-05-17T09:18:37Z</time>
      </trkpt>
      <trkpt lat="48.78105" lon="2.06887">
        <ele>105.05</ele>
        <time>2020-05-17T09:18:54Z</time>
      </trkpt>
      <trkpt lat="48.78122" lon="2.06908">
        <ele>104.47</ele>
        <time>2020-05-17T09:19:14Z</time>
      </trkpt>
      <trkpt lat="48.78123" lon="2.0691">
        <ele>104.35</ele>
        <time>2020-05-17T09:19:16Z</time>
      </trkpt>
      <trkpt lat="48.78134" lon="2.0693">
        <ele>104.61</ele>
        <time>2020-05-17T09:19:33Z</time>
      </trkpt>
      <trkpt lat="48.78149" lon="2.06954">
        <ele>104.59</ele>
        <time>2020-05-17T09:19:54Z</time>
      </trkpt>
      <trkpt lat="48.78157" lon="2.06967">
        <ele>104.6</ele>
        <time>2020-05-17T09:20:02Z</time>
      </trkpt>
      <trkpt lat="48.7817" lon="2.06987">
        <ele>104.49</ele>
        <time>2020-05-17T09:20:20Z</time>
      </trkpt>
      <trkpt lat="48.78181" lon="2.07004">
        <ele>104.25</ele>
        <time>2020-05-17T09:20:40Z</time>
      </trkpt>
      <trkpt lat="48.78186" lon="2.07018">
        <ele>104.35</ele>
        <time>2020-05-17T09:20:56Z</time>
      </trkpt>
      <trkpt lat="48.78195" lon="2.07043">
        <ele>104.24</ele>
        <time>2020-05-17T09:21:14Z</time>
      </trkpt>
      <trkpt lat="48.782" lon="2.07054">
        <ele>104.31</ele>
        <time>2020-05-17T09:21:31Z</time>
      </trkpt>
      <trkpt lat="48.78202" lon="2.07065">
        <ele>105.95</ele>
        <time>2020-05-17T09:21:53Z</time>
      </trkpt>
      <trkpt lat="48.78211" lon="2.07084">
        <ele>106.4</ele>
        <time>2020-05-17T09:22:13Z</time>
      </trkpt>
      <trkpt lat="48.78215" lon="2.07105">
        <ele>107.43</ele>
        <time>2020-05-17T09:22:35Z</time>
      </trkpt>
      <trkpt lat="48.78213" lon="2.07114">
        <ele>107.75</ele>
        <time>2020-05-17T09:23:03Z</time>
      </trkpt>
      <trkpt lat="48.78219" lon="2.07131">
        <ele>108.3</ele>
        <time>2020-05-17T09:23:25Z</time>
      </trkpt>
      <trkpt lat="48.78222" lon="2.07151">
        <ele>110.12</ele>
        <time>2020-05-17T09:23:46Z</time>
      </trkpt>
      <trkpt lat="48.78221" lon="2.07173">
        <ele>110.66</ele>
        <time>2020-05-17T09:24:07Z</time>
      </trkpt>
      <trkpt lat="48.78221" lon="2.07189">
        <ele>111.73</ele>
        <time>2020-05-17T09:24:26Z</time>
      </trkpt>
      <trkpt lat="48.7822" lon="2.07212">
        <ele>113.73</ele>
        <time>2020-05-17T09:24:48Z</time>
      </trkpt>
      <trkpt lat="48.78223" lon="2.07232">
        <ele>114.17</ele>
        <time>2020-05-17T09:25:07Z</time>
      </trkpt>
      <trkpt lat="48.78221" lon="2.07253">
        <ele>114.41</ele>
        <time>2020-05-17T09:25:24Z</time>
      </trkpt>
      <trkpt lat="48.78226" lon="2.07268">
        <ele>114.98</ele>
        <time>2020-05-17T09:25:42Z</time>
      </trkpt>
      <trkpt lat="48.78228" lon="2.07296">
        <ele>115.7</ele>
        <time>2020-05-17T09:26:01Z</time>
      </trkpt>
      <trkpt lat="48.78237" lon="2.07317">
        <ele>117.92</ele>
        <time>2020-05-17T09:26:25Z</time>
      </trkpt>
      <trkpt lat="48.78248" lon="2.07341">
        <ele>120.57</ele>
        <time>2020-05-17T09:26:45Z</time>
      </trkpt>
      <trkpt lat="48.78254" lon="2.07365">
        <ele>119.33</ele>
        <time>2020-05-17T09:27:06Z</time>
      </trkpt>
      <trkpt lat="48.78254" lon="2.07388">
        <ele>117.96</ele>
        <time>2020-05-17T09:27:23Z</time>
      </trkpt>
      <trkpt lat="48.78255" lon="2.07408">
        <ele>115.77</ele>
        <time>2020-05-17T09:27:44Z</time>
      </trkpt>
      <trkpt lat="48.78258" lon="2.07422">
        <ele>115.35</ele>
        <time>2020-05-17T09:27:52Z</time>
      </trkpt>
      <trkpt lat="48.78259" lon="2.0744">
        <ele>112.86</ele>
        <time>2020-05-17T09:28:10Z</time>
      </trkpt>
      <trkpt lat="48.7826" lon="2.07456">
        <ele>111.15</ele>
        <time>2020-05-17T09:28:26Z</time>
      </trkpt>
      <trkpt lat="48.78259" lon="2.07476">
        <ele>109.25</ele>
        <time>2020-05-17T09:28:44Z</time>
      </trkpt>
      <trkpt lat="48.78259" lon="2.07499">
        <ele>106.04</ele>
        <time>2020-05-17T09:29:03Z</time>
      </trkpt>
      <trkpt lat="48.78261" lon="2.07511">
        <ele>104.78</ele>
        <time>2020-05-17T09:29:17Z</time>
      </trkpt>
      <trkpt lat="48.78268" lon="2.07524">
        <ele>103.88</ele>
        <time>2020-05-17T09:29:37Z</time>
      </trkpt>
      <trkpt lat="48.78271" lon="2.07527">
        <ele>103.86</ele>
        <time>2020-05-17T09:29:39Z</time>
      </trkpt>
      <trkpt lat="48.78278" lon="2.0754">
        <ele>101.88</ele>
        <time>2020-05-17T09:29:58Z</time>
      </trkpt>
      <trkpt lat="48.7828" lon="2.07543">
        <ele>102.15</ele>
        <time>2020-05-17T09:30:04Z</time>
      </trkpt>
      <trkpt lat="48.78295" lon="2.07567">
        <ele>100.24</ele>
        <time>2020-05-17T09:30:25Z</time>
      </trkpt>
      <trkpt lat="48.7831" lon="2.07587">
        <ele>100.42</ele>
        <time>2020-05-17T09:30:42Z</time>
      </trkpt>
      <trkpt lat="48.78313" lon="2.07594">
        <ele>99.91</ele>
        <time>2020-05-17T09:30:46Z</time>
      </trkpt>
      <trkpt lat="48.78326" lon="2.07611">
        <ele>99.96</ele>
        <time>2020-05-17T09:31:03Z</time>
      </trkpt>
      <trkpt lat="48.7834" lon="2.07636">
        <ele>101.26</ele>
        <time>2020-05-17T09:31:26Z</time>
      </trkpt>
      <trkpt lat="48.78345" lon="2.07646">
        <ele>101.53</ele>
        <time>2020-05-17T09:31:38Z</time>
      </trkpt>
      <trkpt lat="48.7835" lon="2.07655">
        <ele>100.95</ele>
        <time>2020-05-17T09:31:50Z</time>
      </trkpt>
      <trkpt lat="48.78367" lon="2.07671">
        <ele>100.22</ele>
        <time>2020-05-17T09:32:08Z</time>
      </trkpt>
      <trkpt lat="48.78388" lon="2.07691">
        <ele>100.28</ele>
        <time>2020-05-17T09:32:25Z</time>
      </trkpt>
      <trkpt lat="48.78392" lon="2.07696">
        <ele>100.22</ele>
        <time>2020-05-17T09:32:33Z</time>
      </trkpt>
      <trkpt lat="48.78394" lon="2.07697">
        <ele>100.46</ele>
        <time>2020-05-17T09:32:36Z</time>
      </trkpt>
      <trkpt lat="48.78399" lon="2.07722">
        <ele>101.19</ele>
        <time>2020-05-17T09:32:52Z</time>
      </trkpt>
      <trkpt lat="48.78408" lon="2.07736">
        <ele>102.26</ele>
        <time>2020-05-17T09:33:06Z</time>
      </trkpt>
      <trkpt lat="48.78408" lon="2.07747">
        <ele>102.07</ele>
        <time>2020-05-17T09:33:12Z</time>
      </trkpt>
      <trkpt lat="48.78412" lon="2.07758">
        <ele>102.43</ele>
        <time>2020-05-17T09:33:18Z</time>
      </trkpt>
      <trkpt lat="48.78416" lon="2.07763">
        <ele>102.34</ele>
        <time>2020-05-17T09:33:23Z</time>
      </trkpt>
      <trkpt lat="48.78426" lon="2.0779">
        <ele>101.79</ele>
        <time>2020-05-17T09:33:42Z</time>
      </trkpt>
      <trkpt lat="48.78434" lon="2.07803">
        <ele>101.67</ele>
        <time>2020-05-17T09:33:53Z</time>
      </trkpt>
      <trkpt lat="48.7844" lon="2.07812">
        <ele>102.03</ele>
        <time>2020-05-17T09:34:11Z</time>
      </trkpt>
      <trkpt lat="48.78441" lon="2.07822">
        <ele>99.17</ele>
        <time>2020-05-17T09:34:14Z</time>
      </trkpt>
      <trkpt lat="48.78441" lon="2.07825">
        <ele>105.79</ele>
        <time>2020-05-17T09:34:15Z</time>
      </trkpt>
      <trkpt lat="48.78441" lon="2.07826">
        <ele>105.79</ele>
        <time>2020-05-17T09:34:16Z</time>
      </trkpt>
      <trkpt lat="48.78441" lon="2.07829">
        <ele>105.76</ele>
        <time>2020-05-17T09:34:19Z</time>
      </trkpt>
      <trkpt lat="48.78443" lon="2.07831">
        <ele>102.69</ele>
        <time>2020-05-17T09:34:21Z</time>
      </trkpt>
      <trkpt lat="48.78447" lon="2.0784">
        <ele>102.4</ele>
        <time>2020-05-17T09:34:32Z</time>
      </trkpt>
      <trkpt lat="48.78449" lon="2.07845">
        <ele>103.35</ele>
        <time>2020-05-17T09:34:37Z</time>
      </trkpt>
      <trkpt lat="48.7845" lon="2.07866">
        <ele>104.55</ele>
        <time>2020-05-17T09:34:54Z</time>
      </trkpt>
      <trkpt lat="48.78451" lon="2.07868">
        <ele>104.77</ele>
        <time>2020-05-17T09:34:56Z</time>
      </trkpt>
      <trkpt lat="48.78455" lon="2.07872">
        <ele>104.56</ele>
        <time>2020-05-17T09:35:02Z</time>
      </trkpt>
      <trkpt lat="48.78455" lon="2.0788">
        <ele>104.35</ele>
        <time>2020-05-17T09:35:11Z</time>
      </trkpt>
      <trkpt lat="48.78461" lon="2.07889">
        <ele>103.36</ele>
        <time>2020-05-17T09:35:22Z</time>
      </trkpt>
      <trkpt lat="48.78463" lon="2.07892">
        <ele>103.22</ele>
        <time>2020-05-17T09:35:24Z</time>
      </trkpt>
      <trkpt lat="48.78469" lon="2.079">
        <ele>102.4</ele>
        <time>2020-05-17T09:35:30Z</time>
      </trkpt>
      <trkpt lat="48.78477" lon="2.07933">
        <ele>101.38</ele>
        <time>2020-05-17T09:35:48Z</time>
      </trkpt>
      <trkpt lat="48.78488" lon="2.07951">
        <ele>102.77</ele>
        <time>2020-05-17T09:36:04Z</time>
      </trkpt>
      <trkpt lat="48.78491" lon="2.07954">
        <ele>102.88</ele>
        <time>2020-05-17T09:36:07Z</time>
      </trkpt>
      <trkpt lat="48.78493" lon="2.07959">
        <ele>102.62</ele>
        <time>2020-05-17T09:36:12Z</time>
      </trkpt>
      <trkpt lat="48.785" lon="2.07976">
        <ele>102.82</ele>
        <time>2020-05-17T09:36:29Z</time>
      </trkpt>
      <trkpt lat="48.78502" lon="2.0798">
        <ele>102.59</ele>
        <time>2020-05-17T09:36:33Z</time>
      </trkpt>
      <trkpt lat="48.78504" lon="2.07982">
        <ele>102.49</ele>
        <time>2020-05-17T09:36:36Z</time>
      </trkpt>
      <trkpt lat="48.78512" lon="2.08004">
        <ele>102.5</ele>
        <time>2020-05-17T09:36:55Z</time>
      </trkpt>
      <trkpt lat="48.78512" lon="2.08008">
        <ele>102.3</ele>
        <time>2020-05-17T09:36:59Z</time>
      </trkpt>
      <trkpt lat="48.78529" lon="2.0803">
        <ele>102.98</ele>
        <time>2020-05-17T09:37:16Z</time>
      </trkpt>
      <trkpt lat="48.78532" lon="2.08041">
        <ele>103.64</ele>
        <time>2020-05-17T09:37:28Z</time>
      </trkpt>
      <trkpt lat="48.78538" lon="2.08058">
        <ele>103.07</ele>
        <time>2020-05-17T09:37:42Z</time>
      </trkpt>
      <trkpt lat="48.78542" lon="2.0807">
        <ele>104.06</ele>
        <time>2020-05-17T09:37:54Z</time>
      </trkpt>
      <trkpt lat="48.78549" lon="2.08088">
        <ele>105.2</ele>
        <time>2020-05-17T09:38:07Z</time>
      </trkpt>
      <trkpt lat="48.7856" lon="2.08107">
        <ele>104.75</ele>
        <time>2020-05-17T09:38:28Z</time>
      </trkpt>
      <trkpt lat="48.78581" lon="2.0814">
        <ele>102.96</ele>
        <time>2020-05-17T09:38:49Z</time>
      </trkpt>
      <trkpt lat="48.78589" lon="2.08143">
        <ele>102.19</ele>
        <time>2020-05-17T09:39:01Z</time>
      </trkpt>
      <trkpt lat="48.78619" lon="2.0813">
        <ele>100.72</ele>
        <time>2020-05-17T09:39:25Z</time>
      </trkpt>
      <trkpt lat="48.78638" lon="2.08118">
        <ele>99.93</ele>
        <time>2020-05-17T09:39:40Z</time>
      </trkpt>
      <trkpt lat="48.78651" lon="2.08114">
        <ele>100.21</ele>
        <time>2020-05-17T09:39:59Z</time>
      </trkpt>
      <trkpt lat="48.78659" lon="2.08113">
        <ele>100.34</ele>
        <time>2020-05-17T09:40:06Z</time>
      </trkpt>
      <trkpt lat="48.78676" lon="2.0811">
        <ele>100.43</ele>
        <time>2020-05-17T09:40:27Z</time>
      </trkpt>
      <trkpt lat="48.78693" lon="2.08107">
        <ele>100.49</ele>
        <time>2020-05-17T09:40:47Z</time>
      </trkpt>
      <trkpt lat="48.78713" lon="2.0811">
        <ele>100.55</ele>
        <time>2020-05-17T09:41:07Z</time>
      </trkpt>
      <trkpt lat="48.78714" lon="2.08111">
        <ele>100.84</ele>
        <time>2020-05-17T09:41:09Z</time>
      </trkpt>
      <trkpt lat="48.78723" lon="2.08113">
        <ele>100.67</ele>
        <time>2020-05-17T09:41:16Z</time>
      </trkpt>
      <trkpt lat="48.78729" lon="2.08121">
        <ele>100.92</ele>
        <time>2020-05-17T09:41:32Z</time>
      </trkpt>
      <trkpt lat="48.7873" lon="2.08132">
        <ele>100.68</ele>
        <time>2020-05-17T09:41:50Z</time>
      </trkpt>
      <trkpt lat="48.78742" lon="2.08149">
        <ele>100.67</ele>
        <time>2020-05-17T09:42:08Z</time>
      </trkpt>
      <trkpt lat="48.78766" lon="2.08166">
        <ele>100.57</ele>
        <time>2020-05-17T09:42:19Z</time>
      </trkpt>
      <trkpt lat="48.7877" lon="2.08175">
        <ele>99.91</ele>
        <time>2020-05-17T09:42:27Z</time>
      </trkpt>
      <trkpt lat="48.78772" lon="2.08181">
        <ele>99.45</ele>
        <time>2020-05-17T09:42:33Z</time>
      </trkpt>
      <trkpt lat="48.78782" lon="2.08194">
        <ele>99.11</ele>
        <time>2020-05-17T09:42:45Z</time>
      </trkpt>
      <trkpt lat="48.7878" lon="2.082">
        <ele>99.11</ele>
        <time>2020-05-17T09:43:05Z</time>
      </trkpt>
      <trkpt lat="48.78775" lon="2.08221">
        <ele>98.58</ele>
        <time>2020-05-17T09:43:38Z</time>
      </trkpt>
      <trkpt lat="48.78772" lon="2.08225">
        <ele>98.41</ele>
        <time>2020-05-17T09:44:02Z</time>
      </trkpt>
      <trkpt lat="48.78772" lon="2.08224">
        <ele>98.26</ele>
        <time>2020-05-17T09:44:03Z</time>
      </trkpt>
      <trkpt lat="48.78773" lon="2.08208">
        <ele>138.53</ele>
        <time>2020-05-17T11:15:19Z</time>
      </trkpt>
      <trkpt lat="48.78757" lon="2.08212">
        <ele>140.59</ele>
        <time>2020-05-17T11:18:07Z</time>
      </trkpt>
      <trkpt lat="48.78755" lon="2.08217">
        <ele>140.17</ele>
        <time>2020-05-17T11:18:21Z</time>
      </trkpt>
      <trkpt lat="48.78745" lon="2.08215">
        <ele>139.72</ele>
        <time>2020-05-17T11:18:40Z</time>
      </trkpt>
      <trkpt lat="48.78744" lon="2.08214">
        <ele>140.09</ele>
        <time>2020-05-17T11:18:41Z</time>
      </trkpt>
      <trkpt lat="48.78741" lon="2.08211">
        <ele>139.87</ele>
        <time>2020-05-17T11:19:01Z</time>
      </trkpt>
      <trkpt lat="48.7873" lon="2.08208">
        <ele>139.98</ele>
        <time>2020-05-17T11:19:22Z</time>
      </trkpt>
      <trkpt lat="48.78716" lon="2.08209">
        <ele>139.89</ele>
        <time>2020-05-17T11:19:41Z</time>
      </trkpt>
      <trkpt lat="48.78696" lon="2.08212">
        <ele>140.19</ele>
        <time>2020-05-17T11:20:04Z</time>
      </trkpt>
      <trkpt lat="48.78679" lon="2.08222">
        <ele>140.32</ele>
        <time>2020-05-17T11:20:28Z</time>
      </trkpt>
      <trkpt lat="48.78664" lon="2.08234">
        <ele>140.46</ele>
        <time>2020-05-17T11:20:47Z</time>
      </trkpt>
      <trkpt lat="48.78646" lon="2.08253">
        <ele>140.26</ele>
        <time>2020-05-17T11:21:10Z</time>
      </trkpt>
      <trkpt lat="48.7863" lon="2.08276">
        <ele>139.29</ele>
        <time>2020-05-17T11:21:32Z</time>
      </trkpt>
      <trkpt lat="48.78612" lon="2.08284">
        <ele>139</ele>
        <time>2020-05-17T11:21:54Z</time>
      </trkpt>
      <trkpt lat="48.78593" lon="2.08288">
        <ele>138.4</ele>
        <time>2020-05-17T11:22:15Z</time>
      </trkpt>
      <trkpt lat="48.78576" lon="2.08296">
        <ele>139.34</ele>
        <time>2020-05-17T11:22:35Z</time>
      </trkpt>
      <trkpt lat="48.78561" lon="2.08308">
        <ele>138.96</ele>
        <time>2020-05-17T11:22:56Z</time>
      </trkpt>
      <trkpt lat="48.78547" lon="2.08322">
        <ele>138.67</ele>
        <time>2020-05-17T11:23:15Z</time>
      </trkpt>
      <trkpt lat="48.78523" lon="2.08327">
        <ele>137.67</ele>
        <time>2020-05-17T11:23:36Z</time>
      </trkpt>
      <trkpt lat="48.78503" lon="2.08336">
        <ele>138.36</ele>
        <time>2020-05-17T11:24:00Z</time>
      </trkpt>
      <trkpt lat="48.7848" lon="2.08344">
        <ele>137.72</ele>
        <time>2020-05-17T11:24:22Z</time>
      </trkpt>
      <trkpt lat="48.78461" lon="2.0835">
        <ele>137.19</ele>
        <time>2020-05-17T11:24:43Z</time>
      </trkpt>
      <trkpt lat="48.78455" lon="2.08354">
        <ele>136.42</ele>
        <time>2020-05-17T11:25:03Z</time>
      </trkpt>
      <trkpt lat="48.78434" lon="2.0836">
        <ele>136.45</ele>
        <time>2020-05-17T11:25:26Z</time>
      </trkpt>
      <trkpt lat="48.78417" lon="2.08374">
        <ele>136.28</ele>
        <time>2020-05-17T11:25:49Z</time>
      </trkpt>
      <trkpt lat="48.78404" lon="2.08402">
        <ele>135.74</ele>
        <time>2020-05-17T11:26:10Z</time>
      </trkpt>
      <trkpt lat="48.7839" lon="2.08435">
        <ele>136.1</ele>
        <time>2020-05-17T11:26:32Z</time>
      </trkpt>
      <trkpt lat="48.78378" lon="2.08453">
        <ele>136.15</ele>
        <time>2020-05-17T11:26:50Z</time>
      </trkpt>
      <trkpt lat="48.78369" lon="2.08482">
        <ele>136.02</ele>
        <time>2020-05-17T11:27:11Z</time>
      </trkpt>
      <trkpt lat="48.78362" lon="2.085">
        <ele>135.28</ele>
        <time>2020-05-17T11:27:28Z</time>
      </trkpt>
      <trkpt lat="48.78358" lon="2.08512">
        <ele>135.23</ele>
        <time>2020-05-17T11:27:37Z</time>
      </trkpt>
      <trkpt lat="48.78348" lon="2.08533">
        <ele>134.9</ele>
        <time>2020-05-17T11:27:54Z</time>
      </trkpt>
      <trkpt lat="48.78338" lon="2.08549">
        <ele>134.1</ele>
        <time>2020-05-17T11:28:14Z</time>
      </trkpt>
      <trkpt lat="48.7832" lon="2.0857">
        <ele>133.72</ele>
        <time>2020-05-17T11:28:38Z</time>
      </trkpt>
      <trkpt lat="48.78307" lon="2.08582">
        <ele>133.65</ele>
        <time>2020-05-17T11:29:01Z</time>
      </trkpt>
      <trkpt lat="48.78301" lon="2.08593">
        <ele>132.97</ele>
        <time>2020-05-17T11:29:26Z</time>
      </trkpt>
      <trkpt lat="48.783" lon="2.08592">
        <ele>133.57</ele>
        <time>2020-05-17T11:29:31Z</time>
      </trkpt>
      <trkpt lat="48.78288" lon="2.08596">
        <ele>132.43</ele>
        <time>2020-05-17T11:29:54Z</time>
      </trkpt>
      <trkpt lat="48.78282" lon="2.08598">
        <ele>132.22</ele>
        <time>2020-05-17T11:30:02Z</time>
      </trkpt>
      <trkpt lat="48.78265" lon="2.08605">
        <ele>131.9</ele>
        <time>2020-05-17T11:30:25Z</time>
      </trkpt>
      <trkpt lat="48.78262" lon="2.08621">
        <ele>132.2</ele>
        <time>2020-05-17T11:30:42Z</time>
      </trkpt>
      <trkpt lat="48.78261" lon="2.08639">
        <ele>132.17</ele>
        <time>2020-05-17T11:30:57Z</time>
      </trkpt>
      <trkpt lat="48.78261" lon="2.08672">
        <ele>131.83</ele>
        <time>2020-05-17T11:31:21Z</time>
      </trkpt>
      <trkpt lat="48.78259" lon="2.08685">
        <ele>131.85</ele>
        <time>2020-05-17T11:31:38Z</time>
      </trkpt>
      <trkpt lat="48.78259" lon="2.08698">
        <ele>131.6</ele>
        <time>2020-05-17T11:32:00Z</time>
      </trkpt>
      <trkpt lat="48.78255" lon="2.08718">
        <ele>131.32</ele>
        <time>2020-05-17T11:32:21Z</time>
      </trkpt>
      <trkpt lat="48.78253" lon="2.08721">
        <ele>131.28</ele>
        <time>2020-05-17T11:32:27Z</time>
      </trkpt>
      <trkpt lat="48.78248" lon="2.08729">
        <ele>131.34</ele>
        <time>2020-05-17T11:32:38Z</time>
      </trkpt>
      <trkpt lat="48.78244" lon="2.08727">
        <ele>131.1</ele>
        <time>2020-05-17T11:33:03Z</time>
      </trkpt>
      <trkpt lat="48.78244" lon="2.08724">
        <ele>131.14</ele>
        <time>2020-05-17T11:33:28Z</time>
      </trkpt>
      <trkpt lat="48.78243" lon="2.08728">
        <ele>130.83</ele>
        <time>2020-05-17T11:33:53Z</time>
      </trkpt>
      <trkpt lat="48.78241" lon="2.08729">
        <ele>130.4</ele>
        <time>2020-05-17T11:34:21Z</time>
      </trkpt>
      <trkpt lat="48.7824" lon="2.08725">
        <ele>130.77</ele>
        <time>2020-05-17T11:34:48Z</time>
      </trkpt>
      <trkpt lat="48.78242" lon="2.08731">
        <ele>130.61</ele>
        <time>2020-05-17T11:35:14Z</time>
      </trkpt>
      <trkpt lat="48.78242" lon="2.08733">
        <ele>129.89</ele>
        <time>2020-05-17T11:35:42Z</time>
      </trkpt>
      <trkpt lat="48.78241" lon="2.08741">
        <ele>129.22</ele>
        <time>2020-05-17T11:36:09Z</time>
      </trkpt>
      <trkpt lat="48.7824" lon="2.08745">
        <ele>129.17</ele>
        <time>2020-05-17T11:36:16Z</time>
      </trkpt>
      <trkpt lat="48.7824" lon="2.0877">
        <ele>128.7</ele>
        <time>2020-05-17T11:36:36Z</time>
      </trkpt>
      <trkpt lat="48.7824" lon="2.08793">
        <ele>129.06</ele>
        <time>2020-05-17T11:36:57Z</time>
      </trkpt>
      <trkpt lat="48.78239" lon="2.08825">
        <ele>129.89</ele>
        <time>2020-05-17T11:37:19Z</time>
      </trkpt>
      <trkpt lat="48.78238" lon="2.08859">
        <ele>129.47</ele>
        <time>2020-05-17T11:37:44Z</time>
      </trkpt>
      <trkpt lat="48.78239" lon="2.08887">
        <ele>129.71</ele>
        <time>2020-05-17T11:38:08Z</time>
      </trkpt>
      <trkpt lat="48.7824" lon="2.08924">
        <ele>129.14</ele>
        <time>2020-05-17T11:38:33Z</time>
      </trkpt>
      <trkpt lat="48.7824" lon="2.08955">
        <ele>129.18</ele>
        <time>2020-05-17T11:38:57Z</time>
      </trkpt>
      <trkpt lat="48.78228" lon="2.08986">
        <ele>128.88</ele>
        <time>2020-05-17T11:39:20Z</time>
      </trkpt>
      <trkpt lat="48.78221" lon="2.09006">
        <ele>128.37</ele>
        <time>2020-05-17T11:39:34Z</time>
      </trkpt>
      <trkpt lat="48.78211" lon="2.09027">
        <ele>127.26</ele>
        <time>2020-05-17T11:39:49Z</time>
      </trkpt>
      <trkpt lat="48.7821" lon="2.09033">
        <ele>127.3</ele>
        <time>2020-05-17T11:39:52Z</time>
      </trkpt>
      <trkpt lat="48.78204" lon="2.09047">
        <ele>127.47</ele>
        <time>2020-05-17T11:40:00Z</time>
      </trkpt>
      <trkpt lat="48.78187" lon="2.09064">
        <ele>126.57</ele>
        <time>2020-05-17T11:40:19Z</time>
      </trkpt>
      <trkpt lat="48.78173" lon="2.09073">
        <ele>125.82</ele>
        <time>2020-05-17T11:40:36Z</time>
      </trkpt>
      <trkpt lat="48.7816" lon="2.09091">
        <ele>124.9</ele>
        <time>2020-05-17T11:40:54Z</time>
      </trkpt>
      <trkpt lat="48.78141" lon="2.09105">
        <ele>123.98</ele>
        <time>2020-05-17T11:41:19Z</time>
      </trkpt>
      <trkpt lat="48.78116" lon="2.09115">
        <ele>122.48</ele>
        <time>2020-05-17T11:41:42Z</time>
      </trkpt>
      <trkpt lat="48.78099" lon="2.09131">
        <ele>122.44</ele>
        <time>2020-05-17T11:42:04Z</time>
      </trkpt>
      <trkpt lat="48.78085" lon="2.0915">
        <ele>120.79</ele>
        <time>2020-05-17T11:42:25Z</time>
      </trkpt>
      <trkpt lat="48.78072" lon="2.09174">
        <ele>120.4</ele>
        <time>2020-05-17T11:42:46Z</time>
      </trkpt>
      <trkpt lat="48.78066" lon="2.0921">
        <ele>119.85</ele>
        <time>2020-05-17T11:43:13Z</time>
      </trkpt>
      <trkpt lat="48.78064" lon="2.0924">
        <ele>119.31</ele>
        <time>2020-05-17T11:43:34Z</time>
      </trkpt>
      <trkpt lat="48.78063" lon="2.09245">
        <ele>119.37</ele>
        <time>2020-05-17T11:43:38Z</time>
      </trkpt>
      <trkpt lat="48.78061" lon="2.09279">
        <ele>119.31</ele>
        <time>2020-05-17T11:43:57Z</time>
      </trkpt>
      <trkpt lat="48.78058" lon="2.09312">
        <ele>118.28</ele>
        <time>2020-05-17T11:44:19Z</time>
      </trkpt>
      <trkpt lat="48.78056" lon="2.09348">
        <ele>117.65</ele>
        <time>2020-05-17T11:44:41Z</time>
      </trkpt>
      <trkpt lat="48.78058" lon="2.09386">
        <ele>116.27</ele>
        <time>2020-05-17T11:45:05Z</time>
      </trkpt>
      <trkpt lat="48.78057" lon="2.09432">
        <ele>116.69</ele>
        <time>2020-05-17T11:45:28Z</time>
      </trkpt>
      <trkpt lat="48.78054" lon="2.09467">
        <ele>116.38</ele>
        <time>2020-05-17T11:45:51Z</time>
      </trkpt>
      <trkpt lat="48.78056" lon="2.09499">
        <ele>115.67</ele>
        <time>2020-05-17T11:46:13Z</time>
      </trkpt>
      <trkpt lat="48.78054" lon="2.09522">
        <ele>115.24</ele>
        <time>2020-05-17T11:46:33Z</time>
      </trkpt>
      <trkpt lat="48.78052" lon="2.09534">
        <ele>114.37</ele>
        <time>2020-05-17T11:46:37Z</time>
      </trkpt>
      <trkpt lat="48.78037" lon="2.09557">
        <ele>115.58</ele>
        <time>2020-05-17T11:46:56Z</time>
      </trkpt>
      <trkpt lat="48.78033" lon="2.09564">
        <ele>113</ele>
        <time>2020-05-17T11:47:00Z</time>
      </trkpt>
      <trkpt lat="48.78028" lon="2.0957">
        <ele>115.15</ele>
        <time>2020-05-17T11:47:12Z</time>
      </trkpt>
      <trkpt lat="48.78032" lon="2.09574">
        <ele>115.17</ele>
        <time>2020-05-17T11:47:27Z</time>
      </trkpt>
      <trkpt lat="48.78031" lon="2.09572">
        <ele>115.3</ele>
        <time>2020-05-17T11:47:39Z</time>
      </trkpt>
      <trkpt lat="48.78031" lon="2.09571">
        <ele>115.21</ele>
        <time>2020-05-17T11:48:09Z</time>
      </trkpt>
      <trkpt lat="48.7803" lon="2.09574">
        <ele>115.11</ele>
        <time>2020-05-17T11:48:35Z</time>
      </trkpt>
      <trkpt lat="48.78031" lon="2.09573">
        <ele>114.89</ele>
        <time>2020-05-17T11:48:46Z</time>
      </trkpt>
      <trkpt lat="48.78028" lon="2.09578">
        <ele>115.33</ele>
        <time>2020-05-17T11:49:11Z</time>
      </trkpt>
      <trkpt lat="48.78031" lon="2.09578">
        <ele>115.52</ele>
        <time>2020-05-17T11:49:29Z</time>
      </trkpt>
      <trkpt lat="48.78033" lon="2.09583">
        <ele>112.85</ele>
        <time>2020-05-17T11:49:47Z</time>
      </trkpt>
      <trkpt lat="48.78033" lon="2.09601">
        <ele>111.13</ele>
        <time>2020-05-17T11:50:10Z</time>
      </trkpt>
      <trkpt lat="48.78033" lon="2.0962">
        <ele>111.31</ele>
        <time>2020-05-17T11:50:16Z</time>
      </trkpt>
      <trkpt lat="48.78036" lon="2.09649">
        <ele>110.09</ele>
        <time>2020-05-17T11:50:28Z</time>
      </trkpt>
      <trkpt lat="48.78042" lon="2.09667">
        <ele>109.96</ele>
        <time>2020-05-17T11:50:41Z</time>
      </trkpt>
      <trkpt lat="48.7805" lon="2.09685">
        <ele>111.5</ele>
        <time>2020-05-17T11:50:58Z</time>
      </trkpt>
      <trkpt lat="48.78061" lon="2.09707">
        <ele>111.84</ele>
        <time>2020-05-17T11:51:21Z</time>
      </trkpt>
      <trkpt lat="48.78062" lon="2.09739">
        <ele>112.17</ele>
        <time>2020-05-17T11:51:44Z</time>
      </trkpt>
      <trkpt lat="48.78062" lon="2.09748">
        <ele>111.73</ele>
        <time>2020-05-17T11:51:48Z</time>
      </trkpt>
      <trkpt lat="48.78064" lon="2.09784">
        <ele>112.81</ele>
        <time>2020-05-17T11:52:07Z</time>
      </trkpt>
      <trkpt lat="48.78066" lon="2.09811">
        <ele>112.11</ele>
        <time>2020-05-17T11:52:27Z</time>
      </trkpt>
      <trkpt lat="48.78066" lon="2.09815">
        <ele>112.15</ele>
        <time>2020-05-17T11:52:32Z</time>
      </trkpt>
      <trkpt lat="48.78055" lon="2.0985">
        <ele>112.27</ele>
        <time>2020-05-17T11:52:54Z</time>
      </trkpt>
      <trkpt lat="48.78041" lon="2.09877">
        <ele>109.79</ele>
        <time>2020-05-17T11:53:19Z</time>
      </trkpt>
      <trkpt lat="48.78026" lon="2.09898">
        <ele>108.18</ele>
        <time>2020-05-17T11:53:41Z</time>
      </trkpt>
      <trkpt lat="48.78002" lon="2.09913">
        <ele>107.57</ele>
        <time>2020-05-17T11:54:03Z</time>
      </trkpt>
      <trkpt lat="48.77977" lon="2.09927">
        <ele>106.42</ele>
        <time>2020-05-17T11:54:29Z</time>
      </trkpt>
      <trkpt lat="48.77954" lon="2.0992">
        <ele>105.97</ele>
        <time>2020-05-17T11:54:52Z</time>
      </trkpt>
      <trkpt lat="48.77949" lon="2.09919">
        <ele>106.41</ele>
        <time>2020-05-17T11:55:00Z</time>
      </trkpt>
      <trkpt lat="48.77948" lon="2.09918">
        <ele>105.99</ele>
        <time>2020-05-17T11:55:02Z</time>
      </trkpt>
      <trkpt lat="48.77931" lon="2.09911">
        <ele>106.2</ele>
        <time>2020-05-17T11:55:22Z</time>
      </trkpt>
      <trkpt lat="48.77914" lon="2.099">
        <ele>106.46</ele>
        <time>2020-05-17T11:55:42Z</time>
      </trkpt>
      <trkpt lat="48.77898" lon="2.09882">
        <ele>105.64</ele>
        <time>2020-05-17T11:56:00Z</time>
      </trkpt>
      <trkpt lat="48.77878" lon="2.09877">
        <ele>105.75</ele>
        <time>2020-05-17T11:56:22Z</time>
      </trkpt>
      <trkpt lat="48.77853" lon="2.09881">
        <ele>105.48</ele>
        <time>2020-05-17T11:56:48Z</time>
      </trkpt>
      <trkpt lat="48.77833" lon="2.09897">
        <ele>105.49</ele>
        <time>2020-05-17T11:57:11Z</time>
      </trkpt>
      <trkpt lat="48.7783" lon="2.09908">
        <ele>105.98</ele>
        <time>2020-05-17T11:57:19Z</time>
      </trkpt>
      <trkpt lat="48.77822" lon="2.09933">
        <ele>106.18</ele>
        <time>2020-05-17T11:57:44Z</time>
      </trkpt>
      <trkpt lat="48.77819" lon="2.09958">
        <ele>106.39</ele>
        <time>2020-05-17T11:58:05Z</time>
      </trkpt>
      <trkpt lat="48.77816" lon="2.09972">
        <ele>106.04</ele>
        <time>2020-05-17T11:58:16Z</time>
      </trkpt>
      <trkpt lat="48.77815" lon="2.09975">
        <ele>105.93</ele>
        <time>2020-05-17T11:58:18Z</time>
      </trkpt>
      <trkpt lat="48.77801" lon="2.10012">
        <ele>105.95</ele>
        <time>2020-05-17T11:58:37Z</time>
      </trkpt>
      <trkpt lat="48.778" lon="2.10013">
        <ele>105.95</ele>
        <time>2020-05-17T11:58:38Z</time>
      </trkpt>
      <trkpt lat="48.77798" lon="2.10013">
        <ele>105.16</ele>
        <time>2020-05-17T11:58:41Z</time>
      </trkpt>
      <trkpt lat="48.77787" lon="2.10026">
        <ele>105.11</ele>
        <time>2020-05-17T11:58:55Z</time>
      </trkpt>
      <trkpt lat="48.77774" lon="2.10029">
        <ele>104.37</ele>
        <time>2020-05-17T11:59:07Z</time>
      </trkpt>
      <trkpt lat="48.77763" lon="2.10024">
        <ele>104.88</ele>
        <time>2020-05-17T11:59:19Z</time>
      </trkpt>
      <trkpt lat="48.77742" lon="2.10017">
        <ele>104.93</ele>
        <time>2020-05-17T11:59:40Z</time>
      </trkpt>
      <trkpt lat="48.77726" lon="2.10019">
        <ele>104.69</ele>
        <time>2020-05-17T11:59:57Z</time>
      </trkpt>
      <trkpt lat="48.77712" lon="2.10022">
        <ele>104.22</ele>
        <time>2020-05-17T12:00:12Z</time>
      </trkpt>
      <trkpt lat="48.77706" lon="2.10023">
        <ele>103.86</ele>
        <time>2020-05-17T12:00:16Z</time>
      </trkpt>
      <trkpt lat="48.77672" lon="2.10019">
        <ele>103.68</ele>
        <time>2020-05-17T12:00:39Z</time>
      </trkpt>
      <trkpt lat="48.77654" lon="2.10023">
        <ele>103.85</ele>
        <time>2020-05-17T12:00:54Z</time>
      </trkpt>
      <trkpt lat="48.77641" lon="2.10039">
        <ele>104.64</ele>
        <time>2020-05-17T12:01:12Z</time>
      </trkpt>
      <trkpt lat="48.77632" lon="2.10058">
        <ele>105.16</ele>
        <time>2020-05-17T12:01:32Z</time>
      </trkpt>
      <trkpt lat="48.77628" lon="2.1007">
        <ele>104.96</ele>
        <time>2020-05-17T12:01:38Z</time>
      </trkpt>
      <trkpt lat="48.77627" lon="2.10098">
        <ele>104.65</ele>
        <time>2020-05-17T12:01:58Z</time>
      </trkpt>
      <trkpt lat="48.77625" lon="2.10119">
        <ele>104.19</ele>
        <time>2020-05-17T12:02:12Z</time>
      </trkpt>
      <trkpt lat="48.77623" lon="2.10133">
        <ele>103.77</ele>
        <time>2020-05-17T12:02:31Z</time>
      </trkpt>
      <trkpt lat="48.77622" lon="2.10142">
        <ele>104.44</ele>
        <time>2020-05-17T12:02:41Z</time>
      </trkpt>
      <trkpt lat="48.7762" lon="2.10165">
        <ele>104.22</ele>
        <time>2020-05-17T12:03:02Z</time>
      </trkpt>
      <trkpt lat="48.77621" lon="2.10193">
        <ele>104.17</ele>
        <time>2020-05-17T12:03:25Z</time>
      </trkpt>
      <trkpt lat="48.77624" lon="2.10225">
        <ele>104.53</ele>
        <time>2020-05-17T12:03:48Z</time>
      </trkpt>
      <trkpt lat="48.77628" lon="2.10265">
        <ele>104.51</ele>
        <time>2020-05-17T12:04:12Z</time>
      </trkpt>
      <trkpt lat="48.77631" lon="2.10301">
        <ele>104.66</ele>
        <time>2020-05-17T12:04:36Z</time>
      </trkpt>
      <trkpt lat="48.77631" lon="2.10327">
        <ele>104.47</ele>
        <time>2020-05-17T12:04:52Z</time>
      </trkpt>
      <trkpt lat="48.77629" lon="2.10327">
        <ele>104.72</ele>
        <time>2020-05-17T12:05:04Z</time>
      </trkpt>
      <trkpt lat="48.77626" lon="2.10329">
        <ele>104.73</ele>
        <time>2020-05-17T12:05:33Z</time>
      </trkpt>
      <trkpt lat="48.77627" lon="2.10328">
        <ele>104.11</ele>
        <time>2020-05-17T12:05:57Z</time>
      </trkpt>
      <trkpt lat="48.77628" lon="2.1033">
        <ele>104.7</ele>
        <time>2020-05-17T12:06:22Z</time>
      </trkpt>
      <trkpt lat="48.77629" lon="2.10347">
        <ele>104.46</ele>
        <time>2020-05-17T12:06:42Z</time>
      </trkpt>
      <trkpt lat="48.77629" lon="2.10353">
        <ele>104.93</ele>
        <time>2020-05-17T12:06:49Z</time>
      </trkpt>
      <trkpt lat="48.77628" lon="2.10384">
        <ele>105.03</ele>
        <time>2020-05-17T12:07:07Z</time>
      </trkpt>
      <trkpt lat="48.77623" lon="2.10412">
        <ele>104.62</ele>
        <time>2020-05-17T12:07:25Z</time>
      </trkpt>
      <trkpt lat="48.77619" lon="2.10443">
        <ele>104.78</ele>
        <time>2020-05-17T12:07:46Z</time>
      </trkpt>
      <trkpt lat="48.77615" lon="2.10478">
        <ele>104.98</ele>
        <time>2020-05-17T12:08:07Z</time>
      </trkpt>
      <trkpt lat="48.7761" lon="2.10492">
        <ele>105.01</ele>
        <time>2020-05-17T12:08:17Z</time>
      </trkpt>
      <trkpt lat="48.77607" lon="2.10506">
        <ele>105.45</ele>
        <time>2020-05-17T12:08:33Z</time>
      </trkpt>
      <trkpt lat="48.77606" lon="2.10521">
        <ele>105.05</ele>
        <time>2020-05-17T12:08:44Z</time>
      </trkpt>
      <trkpt lat="48.77597" lon="2.10541">
        <ele>105.1</ele>
        <time>2020-05-17T12:08:58Z</time>
      </trkpt>
      <trkpt lat="48.77596" lon="2.10545">
        <ele>105.09</ele>
        <time>2020-05-17T12:09:05Z</time>
      </trkpt>
      <trkpt lat="48.77584" lon="2.10577">
        <ele>104.58</ele>
        <time>2020-05-17T12:09:27Z</time>
      </trkpt>
      <trkpt lat="48.77567" lon="2.10607">
        <ele>104.59</ele>
        <time>2020-05-17T12:09:48Z</time>
      </trkpt>
      <trkpt lat="48.7755" lon="2.10637">
        <ele>104.81</ele>
        <time>2020-05-17T12:10:10Z</time>
      </trkpt>
      <trkpt lat="48.77542" lon="2.1067">
        <ele>105.68</ele>
        <time>2020-05-17T12:10:32Z</time>
      </trkpt>
      <trkpt lat="48.77547" lon="2.10701">
        <ele>106.33</ele>
        <time>2020-05-17T12:10:52Z</time>
      </trkpt>
      <trkpt lat="48.77548" lon="2.10704">
        <ele>106.66</ele>
        <time>2020-05-17T12:10:56Z</time>
      </trkpt>
      <trkpt lat="48.77558" lon="2.10746">
        <ele>106.6</ele>
        <time>2020-05-17T12:11:19Z</time>
      </trkpt>
      <trkpt lat="48.77568" lon="2.10772">
        <ele>105.82</ele>
        <time>2020-05-17T12:11:39Z</time>
      </trkpt>
      <trkpt lat="48.7757" lon="2.10776">
        <ele>105.48</ele>
        <time>2020-05-17T12:11:42Z</time>
      </trkpt>
      <trkpt lat="48.77575" lon="2.10794">
        <ele>105.44</ele>
        <time>2020-05-17T12:11:54Z</time>
      </trkpt>
      <trkpt lat="48.77575" lon="2.10803">
        <ele>105.35</ele>
        <time>2020-05-17T12:12:11Z</time>
      </trkpt>
      <trkpt lat="48.77572" lon="2.10809">
        <ele>105.03</ele>
        <time>2020-05-17T12:12:44Z</time>
      </trkpt>
      <trkpt lat="48.77582" lon="2.10821">
        <ele>104.95</ele>
        <time>2020-05-17T12:13:01Z</time>
      </trkpt>
      <trkpt lat="48.77593" lon="2.10842">
        <ele>103.67</ele>
        <time>2020-05-17T12:13:14Z</time>
      </trkpt>
      <trkpt lat="48.77604" lon="2.10865">
        <ele>103.43</ele>
        <time>2020-05-17T12:13:33Z</time>
      </trkpt>
      <trkpt lat="48.77616" lon="2.10892">
        <ele>103.57</ele>
        <time>2020-05-17T12:13:49Z</time>
      </trkpt>
      <trkpt lat="48.77626" lon="2.10914">
        <ele>103.58</ele>
        <time>2020-05-17T12:14:07Z</time>
      </trkpt>
      <trkpt lat="48.77633" lon="2.10938">
        <ele>103.82</ele>
        <time>2020-05-17T12:14:25Z</time>
      </trkpt>
      <trkpt lat="48.77634" lon="2.10939">
        <ele>103.48</ele>
        <time>2020-05-17T12:14:27Z</time>
      </trkpt>
      <trkpt lat="48.77639" lon="2.10952">
        <ele>103.69</ele>
        <time>2020-05-17T12:14:37Z</time>
      </trkpt>
      <trkpt lat="48.77647" lon="2.10972">
        <ele>103.68</ele>
        <time>2020-05-17T12:14:50Z</time>
      </trkpt>
      <trkpt lat="48.77647" lon="2.10974">
        <ele>103.72</ele>
        <time>2020-05-17T12:14:51Z</time>
      </trkpt>
      <trkpt lat="48.77655" lon="2.10981">
        <ele>103.5</ele>
        <time>2020-05-17T12:15:03Z</time>
      </trkpt>
      <trkpt lat="48.77661" lon="2.11006">
        <ele>102.85</ele>
        <time>2020-05-17T12:15:18Z</time>
      </trkpt>
      <trkpt lat="48.77672" lon="2.11023">
        <ele>102.33</ele>
        <time>2020-05-17T12:15:30Z</time>
      </trkpt>
      <trkpt lat="48.77675" lon="2.1103">
        <ele>103.23</ele>
        <time>2020-05-17T12:15:35Z</time>
      </trkpt>
      <trkpt lat="48.77686" lon="2.11047">
        <ele>103.37</ele>
        <time>2020-05-17T12:15:49Z</time>
      </trkpt>
      <trkpt lat="48.7769" lon="2.11058">
        <ele>102.62</ele>
        <time>2020-05-17T12:15:59Z</time>
      </trkpt>
      <trkpt lat="48.77693" lon="2.11081">
        <ele>101.96</ele>
        <time>2020-05-17T12:16:12Z</time>
      </trkpt>
      <trkpt lat="48.77696" lon="2.11096">
        <ele>102.01</ele>
        <time>2020-05-17T12:16:20Z</time>
      </trkpt>
      <trkpt lat="48.77701" lon="2.11127">
        <ele>102.1</ele>
        <time>2020-05-17T12:16:37Z</time>
      </trkpt>
      <trkpt lat="48.77704" lon="2.11142">
        <ele>103.12</ele>
        <time>2020-05-17T12:16:49Z</time>
      </trkpt>
      <trkpt lat="48.77705" lon="2.11144">
        <ele>102.91</ele>
        <time>2020-05-17T12:16:52Z</time>
      </trkpt>
      <trkpt lat="48.77709" lon="2.11166">
        <ele>102.24</ele>
        <time>2020-05-17T12:17:06Z</time>
      </trkpt>
      <trkpt lat="48.77713" lon="2.11191">
        <ele>102.25</ele>
        <time>2020-05-17T12:17:21Z</time>
      </trkpt>
      <trkpt lat="48.77713" lon="2.11204">
        <ele>101.58</ele>
        <time>2020-05-17T12:17:29Z</time>
      </trkpt>
      <trkpt lat="48.77713" lon="2.11225">
        <ele>102.25</ele>
        <time>2020-05-17T12:17:41Z</time>
      </trkpt>
      <trkpt lat="48.77717" lon="2.11258">
        <ele>102.74</ele>
        <time>2020-05-17T12:18:00Z</time>
      </trkpt>
      <trkpt lat="48.77716" lon="2.1129">
        <ele>101.41</ele>
        <time>2020-05-17T12:18:21Z</time>
      </trkpt>
      <trkpt lat="48.7771" lon="2.11311">
        <ele>101.77</ele>
        <time>2020-05-17T12:18:34Z</time>
      </trkpt>
      <trkpt lat="48.77706" lon="2.11335">
        <ele>101.5</ele>
        <time>2020-05-17T12:18:47Z</time>
      </trkpt>
      <trkpt lat="48.77708" lon="2.11343">
        <ele>101.66</ele>
        <time>2020-05-17T12:18:54Z</time>
      </trkpt>
      <trkpt lat="48.7771" lon="2.11365">
        <ele>102.04</ele>
        <time>2020-05-17T12:19:09Z</time>
      </trkpt>
      <trkpt lat="48.77711" lon="2.11376">
        <ele>101.25</ele>
        <time>2020-05-17T12:19:14Z</time>
      </trkpt>
      <trkpt lat="48.77709" lon="2.11398">
        <ele>101.52</ele>
        <time>2020-05-17T12:19:26Z</time>
      </trkpt>
      <trkpt lat="48.77698" lon="2.11428">
        <ele>101.44</ele>
        <time>2020-05-17T12:19:48Z</time>
      </trkpt>
      <trkpt lat="48.77693" lon="2.11446">
        <ele>101.54</ele>
        <time>2020-05-17T12:20:01Z</time>
      </trkpt>
      <trkpt lat="48.77691" lon="2.1147">
        <ele>101.32</ele>
        <time>2020-05-17T12:20:15Z</time>
      </trkpt>
      <trkpt lat="48.7769" lon="2.11489">
        <ele>100.37</ele>
        <time>2020-05-17T12:20:28Z</time>
      </trkpt>
      <trkpt lat="48.77695" lon="2.11517">
        <ele>100.39</ele>
        <time>2020-05-17T12:20:46Z</time>
      </trkpt>
      <trkpt lat="48.77702" lon="2.11542">
        <ele>100.62</ele>
        <time>2020-05-17T12:21:01Z</time>
      </trkpt>
      <trkpt lat="48.77714" lon="2.11575">
        <ele>100.71</ele>
        <time>2020-05-17T12:21:23Z</time>
      </trkpt>
      <trkpt lat="48.77722" lon="2.11599">
        <ele>100.63</ele>
        <time>2020-05-17T12:21:43Z</time>
      </trkpt>
      <trkpt lat="48.77732" lon="2.11621">
        <ele>100.92</ele>
        <time>2020-05-17T12:22:02Z</time>
      </trkpt>
      <trkpt lat="48.77736" lon="2.1165">
        <ele>101.09</ele>
        <time>2020-05-17T12:22:16Z</time>
      </trkpt>
      <trkpt lat="48.77737" lon="2.11676">
        <ele>100.62</ele>
        <time>2020-05-17T12:22:32Z</time>
      </trkpt>
      <trkpt lat="48.77741" lon="2.11708">
        <ele>101.56</ele>
        <time>2020-05-17T12:22:53Z</time>
      </trkpt>
      <trkpt lat="48.77745" lon="2.11726">
        <ele>101.71</ele>
        <time>2020-05-17T12:23:12Z</time>
      </trkpt>
      <trkpt lat="48.77745" lon="2.11753">
        <ele>101.1</ele>
        <time>2020-05-17T12:23:29Z</time>
      </trkpt>
      <trkpt lat="48.77737" lon="2.11758">
        <ele>101.12</ele>
        <time>2020-05-17T12:23:36Z</time>
      </trkpt>
      <trkpt lat="48.77712" lon="2.11763">
        <ele>101.72</ele>
        <time>2020-05-17T12:24:01Z</time>
      </trkpt>
      <trkpt lat="48.77692" lon="2.1177">
        <ele>101.13</ele>
        <time>2020-05-17T12:24:25Z</time>
      </trkpt>
      <trkpt lat="48.77683" lon="2.11774">
        <ele>101.76</ele>
        <time>2020-05-17T12:24:45Z</time>
      </trkpt>
      <trkpt lat="48.77669" lon="2.11777">
        <ele>101.67</ele>
        <time>2020-05-17T12:25:08Z</time>
      </trkpt>
      <trkpt lat="48.7765" lon="2.11771">
        <ele>101.63</ele>
        <time>2020-05-17T12:25:31Z</time>
      </trkpt>
      <trkpt lat="48.77639" lon="2.11767">
        <ele>100.84</ele>
        <time>2020-05-17T12:25:44Z</time>
      </trkpt>
      <trkpt lat="48.77627" lon="2.1176">
        <ele>101.37</ele>
        <time>2020-05-17T12:25:59Z</time>
      </trkpt>
      <trkpt lat="48.77616" lon="2.11758">
        <ele>102.83</ele>
        <time>2020-05-17T12:26:17Z</time>
      </trkpt>
      <trkpt lat="48.77614" lon="2.1176">
        <ele>103.96</ele>
        <time>2020-05-17T12:26:29Z</time>
      </trkpt>
      <trkpt lat="48.77606" lon="2.11777">
        <ele>105.45</ele>
        <time>2020-05-17T12:26:50Z</time>
      </trkpt>
      <trkpt lat="48.77594" lon="2.11793">
        <ele>106.68</ele>
        <time>2020-05-17T12:27:08Z</time>
      </trkpt>
      <trkpt lat="48.77588" lon="2.11799">
        <ele>107.61</ele>
        <time>2020-05-17T12:27:22Z</time>
      </trkpt>
      <trkpt lat="48.77573" lon="2.118">
        <ele>109.31</ele>
        <time>2020-05-17T12:27:42Z</time>
      </trkpt>
      <trkpt lat="48.7756" lon="2.11805">
        <ele>109.65</ele>
        <time>2020-05-17T12:27:59Z</time>
      </trkpt>
      <trkpt lat="48.77542" lon="2.11812">
        <ele>111.22</ele>
        <time>2020-05-17T12:28:14Z</time>
      </trkpt>
      <trkpt lat="48.77536" lon="2.11817">
        <ele>110.89</ele>
        <time>2020-05-17T12:28:19Z</time>
      </trkpt>
      <trkpt lat="48.77526" lon="2.11828">
        <ele>111.76</ele>
        <time>2020-05-17T12:28:29Z</time>
      </trkpt>
      <trkpt lat="48.77517" lon="2.11836">
        <ele>111.47</ele>
        <time>2020-05-17T12:28:43Z</time>
      </trkpt>
      <trkpt lat="48.77508" lon="2.11855">
        <ele>112.49</ele>
        <time>2020-05-17T12:29:02Z</time>
      </trkpt>
      <trkpt lat="48.77505" lon="2.11866">
        <ele>112.41</ele>
        <time>2020-05-17T12:29:08Z</time>
      </trkpt>
      <trkpt lat="48.77505" lon="2.11882">
        <ele>112.14</ele>
        <time>2020-05-17T12:29:26Z</time>
      </trkpt>
      <trkpt lat="48.7749" lon="2.11892">
        <ele>113.01</ele>
        <time>2020-05-17T12:29:42Z</time>
      </trkpt>
      <trkpt lat="48.77487" lon="2.11895">
        <ele>112.88</ele>
        <time>2020-05-17T12:29:52Z</time>
      </trkpt>
      <trkpt lat="48.77477" lon="2.11898">
        <ele>113.37</ele>
        <time>2020-05-17T12:30:11Z</time>
      </trkpt>
      <trkpt lat="48.77468" lon="2.1189">
        <ele>113.88</ele>
        <time>2020-05-17T12:30:34Z</time>
      </trkpt>
      <trkpt lat="48.77456" lon="2.11889">
        <ele>115.55</ele>
        <time>2020-05-17T12:30:46Z</time>
      </trkpt>
      <trkpt lat="48.77439" lon="2.1188">
        <ele>117.37</ele>
        <time>2020-05-17T12:31:08Z</time>
      </trkpt>
      <trkpt lat="48.77424" lon="2.11878">
        <ele>119.95</ele>
        <time>2020-05-17T12:31:28Z</time>
      </trkpt>
      <trkpt lat="48.77412" lon="2.11871">
        <ele>120.97</ele>
        <time>2020-05-17T12:31:43Z</time>
      </trkpt>
      <trkpt lat="48.77407" lon="2.11866">
        <ele>121.72</ele>
        <time>2020-05-17T12:31:50Z</time>
      </trkpt>
      <trkpt lat="48.77393" lon="2.11862">
        <ele>123.91</ele>
        <time>2020-05-17T12:32:09Z</time>
      </trkpt>
      <trkpt lat="48.77379" lon="2.11853">
        <ele>125.85</ele>
        <time>2020-05-17T12:32:25Z</time>
      </trkpt>
      <trkpt lat="48.77374" lon="2.11851">
        <ele>126.58</ele>
        <time>2020-05-17T12:32:34Z</time>
      </trkpt>
      <trkpt lat="48.77361" lon="2.11845">
        <ele>129.32</ele>
        <time>2020-05-17T12:32:50Z</time>
      </trkpt>
      <trkpt lat="48.77354" lon="2.11842">
        <ele>130.43</ele>
        <time>2020-05-17T12:33:01Z</time>
      </trkpt>
      <trkpt lat="48.77346" lon="2.1184">
        <ele>131.2</ele>
        <time>2020-05-17T12:33:14Z</time>
      </trkpt>
      <trkpt lat="48.77334" lon="2.1184">
        <ele>132.78</ele>
        <time>2020-05-17T12:33:30Z</time>
      </trkpt>
      <trkpt lat="48.77327" lon="2.11832">
        <ele>134.17</ele>
        <time>2020-05-17T12:33:42Z</time>
      </trkpt>
      <trkpt lat="48.7731" lon="2.11827">
        <ele>136.88</ele>
        <time>2020-05-17T12:34:01Z</time>
      </trkpt>
      <trkpt lat="48.77305" lon="2.11808">
        <ele>138.48</ele>
        <time>2020-05-17T12:34:22Z</time>
      </trkpt>
      <trkpt lat="48.77304" lon="2.11809">
        <ele>137.87</ele>
        <time>2020-05-17T12:34:32Z</time>
      </trkpt>
      <trkpt lat="48.77294" lon="2.11815">
        <ele>138.05</ele>
        <time>2020-05-17T12:34:56Z</time>
      </trkpt>
      <trkpt lat="48.77294" lon="2.11816">
        <ele>138.33</ele>
        <time>2020-05-17T12:35:26Z</time>
      </trkpt>
      <trkpt lat="48.77295" lon="2.11815">
        <ele>137.45</ele>
        <time>2020-05-17T12:35:40Z</time>
      </trkpt>
      <trkpt lat="48.77305" lon="2.11798">
        <ele>136.81</ele>
        <time>2020-05-17T12:36:04Z</time>
      </trkpt>
      <trkpt lat="48.77317" lon="2.11774">
        <ele>137.75</ele>
        <time>2020-05-17T12:36:23Z</time>
      </trkpt>
      <trkpt lat="48.77324" lon="2.11761">
        <ele>136.89</ele>
        <time>2020-05-17T12:36:43Z</time>
      </trkpt>
      <trkpt lat="48.77322" lon="2.11764">
        <ele>136.78</ele>
        <time>2020-05-17T12:37:11Z</time>
      </trkpt>
      <trkpt lat="48.77324" lon="2.1177">
        <ele>136.19</ele>
        <time>2020-05-17T12:37:26Z</time>
      </trkpt>
      <trkpt lat="48.77343" lon="2.11773">
        <ele>135.58</ele>
        <time>2020-05-17T12:37:44Z</time>
      </trkpt>
      <trkpt lat="48.77365" lon="2.11773">
        <ele>133.78</ele>
        <time>2020-05-17T12:38:06Z</time>
      </trkpt>
      <trkpt lat="48.77379" lon="2.11781">
        <ele>131.27</ele>
        <time>2020-05-17T12:38:29Z</time>
      </trkpt>
      <trkpt lat="48.7739" lon="2.11784">
        <ele>132.22</ele>
        <time>2020-05-17T12:38:38Z</time>
      </trkpt>
      <trkpt lat="48.77412" lon="2.11766">
        <ele>131.19</ele>
        <time>2020-05-17T12:38:56Z</time>
      </trkpt>
      <trkpt lat="48.77416" lon="2.11754">
        <ele>129.3</ele>
        <time>2020-05-17T12:39:16Z</time>
      </trkpt>
      <trkpt lat="48.77416" lon="2.11754">
        <ele>128.91</ele>
        <time>2020-05-17T12:39:17Z</time>
      </trkpt>
      <trkpt lat="48.77417" lon="2.11747">
        <ele>128.88</ele>
        <time>2020-05-17T12:39:24Z</time>
      </trkpt>
      <trkpt lat="48.7742" lon="2.11741">
        <ele>128.82</ele>
        <time>2020-05-17T12:39:27Z</time>
      </trkpt>
      <trkpt lat="48.77427" lon="2.11736">
        <ele>129.22</ele>
        <time>2020-05-17T12:39:40Z</time>
      </trkpt>
      <trkpt lat="48.77429" lon="2.11734">
        <ele>128.61</ele>
        <time>2020-05-17T12:39:56Z</time>
      </trkpt>
      <trkpt lat="48.77431" lon="2.11734">
        <ele>127.93</ele>
        <time>2020-05-17T12:40:02Z</time>
      </trkpt>
      <trkpt lat="48.77432" lon="2.11734">
        <ele>128.36</ele>
        <time>2020-05-17T12:40:04Z</time>
      </trkpt>
      <trkpt lat="48.77435" lon="2.1173">
        <ele>127.94</ele>
        <time>2020-05-17T12:40:10Z</time>
      </trkpt>
      <trkpt lat="48.77439" lon="2.11726">
        <ele>127.82</ele>
        <time>2020-05-17T12:40:13Z</time>
      </trkpt>
      <trkpt lat="48.77447" lon="2.11725">
        <ele>128.29</ele>
        <time>2020-05-17T12:40:30Z</time>
      </trkpt>
      <trkpt lat="48.77454" lon="2.11724">
        <ele>127.3</ele>
        <time>2020-05-17T12:40:40Z</time>
      </trkpt>
      <trkpt lat="48.7747" lon="2.11703">
        <ele>125.59</ele>
        <time>2020-05-17T12:41:02Z</time>
      </trkpt>
      <trkpt lat="48.77473" lon="2.1169">
        <ele>125.27</ele>
        <time>2020-05-17T12:41:12Z</time>
      </trkpt>
      <trkpt lat="48.77477" lon="2.11675">
        <ele>125.44</ele>
        <time>2020-05-17T12:41:22Z</time>
      </trkpt>
      <trkpt lat="48.77483" lon="2.11663">
        <ele>125.28</ele>
        <time>2020-05-17T12:41:32Z</time>
      </trkpt>
      <trkpt lat="48.77488" lon="2.11636">
        <ele>123.84</ele>
        <time>2020-05-17T12:41:49Z</time>
      </trkpt>
      <trkpt lat="48.77495" lon="2.11608">
        <ele>122.71</ele>
        <time>2020-05-17T12:42:09Z</time>
      </trkpt>
      <trkpt lat="48.77497" lon="2.1159">
        <ele>121.44</ele>
        <time>2020-05-17T12:42:28Z</time>
      </trkpt>
      <trkpt lat="48.77493" lon="2.11579">
        <ele>120.77</ele>
        <time>2020-05-17T12:42:39Z</time>
      </trkpt>
      <trkpt lat="48.77496" lon="2.11541">
        <ele>120.3</ele>
        <time>2020-05-17T12:42:57Z</time>
      </trkpt>
      <trkpt lat="48.77499" lon="2.11529">
        <ele>119.79</ele>
        <time>2020-05-17T12:43:15Z</time>
      </trkpt>
      <trkpt lat="48.77501" lon="2.11511">
        <ele>119.32</ele>
        <time>2020-05-17T12:43:35Z</time>
      </trkpt>
      <trkpt lat="48.77497" lon="2.11501">
        <ele>118.76</ele>
        <time>2020-05-17T12:43:52Z</time>
      </trkpt>
      <trkpt lat="48.77498" lon="2.11492">
        <ele>118.48</ele>
        <time>2020-05-17T12:44:05Z</time>
      </trkpt>
      <trkpt lat="48.77493" lon="2.11465">
        <ele>117.44</ele>
        <time>2020-05-17T12:44:29Z</time>
      </trkpt>
      <trkpt lat="48.77489" lon="2.11456">
        <ele>116.47</ele>
        <time>2020-05-17T12:44:41Z</time>
      </trkpt>
      <trkpt lat="48.77487" lon="2.11431">
        <ele>115.35</ele>
        <time>2020-05-17T12:44:58Z</time>
      </trkpt>
      <trkpt lat="48.77484" lon="2.11418">
        <ele>115.63</ele>
        <time>2020-05-17T12:45:13Z</time>
      </trkpt>
      <trkpt lat="48.77481" lon="2.11399">
        <ele>113.9</ele>
        <time>2020-05-17T12:45:31Z</time>
      </trkpt>
      <trkpt lat="48.77482" lon="2.11391">
        <ele>113.71</ele>
        <time>2020-05-17T12:45:36Z</time>
      </trkpt>
      <trkpt lat="48.7748" lon="2.11361">
        <ele>113.57</ele>
        <time>2020-05-17T12:45:59Z</time>
      </trkpt>
      <trkpt lat="48.7748" lon="2.11352">
        <ele>113.44</ele>
        <time>2020-05-17T12:46:04Z</time>
      </trkpt>
      <trkpt lat="48.77483" lon="2.11328">
        <ele>114.4</ele>
        <time>2020-05-17T12:46:21Z</time>
      </trkpt>
      <trkpt lat="48.77483" lon="2.1131">
        <ele>114.69</ele>
        <time>2020-05-17T12:46:35Z</time>
      </trkpt>
      <trkpt lat="48.77485" lon="2.11279">
        <ele>115.18</ele>
        <time>2020-05-17T12:46:54Z</time>
      </trkpt>
      <trkpt lat="48.77486" lon="2.11275">
        <ele>115.03</ele>
        <time>2020-05-17T12:46:57Z</time>
      </trkpt>
      <trkpt lat="48.77484" lon="2.11253">
        <ele>115.64</ele>
        <time>2020-05-17T12:47:15Z</time>
      </trkpt>
      <trkpt lat="48.77484" lon="2.11251">
        <ele>115.52</ele>
        <time>2020-05-17T12:47:17Z</time>
      </trkpt>
      <trkpt lat="48.77482" lon="2.11237">
        <ele>116.16</ele>
        <time>2020-05-17T12:47:28Z</time>
      </trkpt>
      <trkpt lat="48.77481" lon="2.11216">
        <ele>116.28</ele>
        <time>2020-05-17T12:47:42Z</time>
      </trkpt>
      <trkpt lat="48.77477" lon="2.1118">
        <ele>116.82</ele>
        <time>2020-05-17T12:47:59Z</time>
      </trkpt>
      <trkpt lat="48.77476" lon="2.11167">
        <ele>114.66</ele>
        <time>2020-05-17T12:48:18Z</time>
      </trkpt>
      <trkpt lat="48.77475" lon="2.11161">
        <ele>113.46</ele>
        <time>2020-05-17T12:48:32Z</time>
      </trkpt>
      <trkpt lat="48.77466" lon="2.11134">
        <ele>111.92</ele>
        <time>2020-05-17T12:48:52Z</time>
      </trkpt>
      <trkpt lat="48.77466" lon="2.11125">
        <ele>110.14</ele>
        <time>2020-05-17T12:49:01Z</time>
      </trkpt>
      <trkpt lat="48.77463" lon="2.11119">
        <ele>107.36</ele>
        <time>2020-05-17T12:49:20Z</time>
      </trkpt>
      <trkpt lat="48.77462" lon="2.11119">
        <ele>107.02</ele>
        <time>2020-05-17T12:49:21Z</time>
      </trkpt>
      <trkpt lat="48.77456" lon="2.11109">
        <ele>103.49</ele>
        <time>2020-05-17T12:49:39Z</time>
      </trkpt>
      <trkpt lat="48.77454" lon="2.11072">
        <ele>101.83</ele>
        <time>2020-05-17T12:49:55Z</time>
      </trkpt>
      <trkpt lat="48.77453" lon="2.11065">
        <ele>101.22</ele>
        <time>2020-05-17T12:50:03Z</time>
      </trkpt>
      <trkpt lat="48.77446" lon="2.11053">
        <ele>100.79</ele>
        <time>2020-05-17T12:50:25Z</time>
      </trkpt>
      <trkpt lat="48.77442" lon="2.11053">
        <ele>101.65</ele>
        <time>2020-05-17T12:50:40Z</time>
      </trkpt>
      <trkpt lat="48.77442" lon="2.11056">
        <ele>101.11</ele>
        <time>2020-05-17T12:51:05Z</time>
      </trkpt>
      <trkpt lat="48.77429" lon="2.11043">
        <ele>101.23</ele>
        <time>2020-05-17T12:51:28Z</time>
      </trkpt>
      <trkpt lat="48.7742" lon="2.11026">
        <ele>101.23</ele>
        <time>2020-05-17T12:51:44Z</time>
      </trkpt>
      <trkpt lat="48.77414" lon="2.10998">
        <ele>101.26</ele>
        <time>2020-05-17T12:52:08Z</time>
      </trkpt>
      <trkpt lat="48.77412" lon="2.10987">
        <ele>101.25</ele>
        <time>2020-05-17T12:52:17Z</time>
      </trkpt>
      <trkpt lat="48.77406" lon="2.10974">
        <ele>101.56</ele>
        <time>2020-05-17T12:52:31Z</time>
      </trkpt>
      <trkpt lat="48.77398" lon="2.10957">
        <ele>101.87</ele>
        <time>2020-05-17T12:52:50Z</time>
      </trkpt>
      <trkpt lat="48.77397" lon="2.10956">
        <ele>101.29</ele>
        <time>2020-05-17T12:52:52Z</time>
      </trkpt>
      <trkpt lat="48.77398" lon="2.10943">
        <ele>101.75</ele>
        <time>2020-05-17T12:53:00Z</time>
      </trkpt>
      <trkpt lat="48.77395" lon="2.10934">
        <ele>101.92</ele>
        <time>2020-05-17T12:53:09Z</time>
      </trkpt>
      <trkpt lat="48.7739" lon="2.10916">
        <ele>101.2</ele>
        <time>2020-05-17T12:53:24Z</time>
      </trkpt>
      <trkpt lat="48.77387" lon="2.10896">
        <ele>100.98</ele>
        <time>2020-05-17T12:53:37Z</time>
      </trkpt>
      <trkpt lat="48.77384" lon="2.10879">
        <ele>101.42</ele>
        <time>2020-05-17T12:53:44Z</time>
      </trkpt>
      <trkpt lat="48.77383" lon="2.10871">
        <ele>101.27</ele>
        <time>2020-05-17T12:53:50Z</time>
      </trkpt>
      <trkpt lat="48.77383" lon="2.10855">
        <ele>101.67</ele>
        <time>2020-05-17T12:53:58Z</time>
      </trkpt>
      <trkpt lat="48.77383" lon="2.10847">
        <ele>101.27</ele>
        <time>2020-05-17T12:54:07Z</time>
      </trkpt>
      <trkpt lat="48.77376" lon="2.10828">
        <ele>101.68</ele>
        <time>2020-05-17T12:54:23Z</time>
      </trkpt>
      <trkpt lat="48.77373" lon="2.10806">
        <ele>101.77</ele>
        <time>2020-05-17T12:54:34Z</time>
      </trkpt>
      <trkpt lat="48.7737" lon="2.10795">
        <ele>101.77</ele>
        <time>2020-05-17T12:54:50Z</time>
      </trkpt>
      <trkpt lat="48.77372" lon="2.10784">
        <ele>101.97</ele>
        <time>2020-05-17T12:54:58Z</time>
      </trkpt>
      <trkpt lat="48.77371" lon="2.10761">
        <ele>101.62</ele>
        <time>2020-05-17T12:55:13Z</time>
      </trkpt>
      <trkpt lat="48.77372" lon="2.10754">
        <ele>101.48</ele>
        <time>2020-05-17T12:55:18Z</time>
      </trkpt>
      <trkpt lat="48.77376" lon="2.10723">
        <ele>101.95</ele>
        <time>2020-05-17T12:55:36Z</time>
      </trkpt>
      <trkpt lat="48.77378" lon="2.1071">
        <ele>101.89</ele>
        <time>2020-05-17T12:55:46Z</time>
      </trkpt>
      <trkpt lat="48.77382" lon="2.107">
        <ele>101.82</ele>
        <time>2020-05-17T12:55:52Z</time>
      </trkpt>
      <trkpt lat="48.77383" lon="2.10694">
        <ele>101.84</ele>
        <time>2020-05-17T12:55:56Z</time>
      </trkpt>
      <trkpt lat="48.77384" lon="2.10687">
        <ele>102.17</ele>
        <time>2020-05-17T12:56:01Z</time>
      </trkpt>
      <trkpt lat="48.77384" lon="2.10683">
        <ele>101.71</ele>
        <time>2020-05-17T12:56:04Z</time>
      </trkpt>
      <trkpt lat="48.77387" lon="2.10677">
        <ele>101.96</ele>
        <time>2020-05-17T12:56:09Z</time>
      </trkpt>
      <trkpt lat="48.77389" lon="2.10673">
        <ele>101.83</ele>
        <time>2020-05-17T12:56:12Z</time>
      </trkpt>
      <trkpt lat="48.77392" lon="2.10666">
        <ele>101.76</ele>
        <time>2020-05-17T12:56:18Z</time>
      </trkpt>
      <trkpt lat="48.77399" lon="2.10647">
        <ele>101.78</ele>
        <time>2020-05-17T12:56:28Z</time>
      </trkpt>
      <trkpt lat="48.77399" lon="2.10644">
        <ele>101.76</ele>
        <time>2020-05-17T12:56:31Z</time>
      </trkpt>
      <trkpt lat="48.77403" lon="2.10623">
        <ele>101.76</ele>
        <time>2020-05-17T12:56:44Z</time>
      </trkpt>
      <trkpt lat="48.77408" lon="2.1061">
        <ele>101.46</ele>
        <time>2020-05-17T12:56:54Z</time>
      </trkpt>
      <trkpt lat="48.77411" lon="2.10599">
        <ele>99.46</ele>
        <time>2020-05-17T12:57:02Z</time>
      </trkpt>
      <trkpt lat="48.77414" lon="2.10586">
        <ele>101.83</ele>
        <time>2020-05-17T12:57:08Z</time>
      </trkpt>
      <trkpt lat="48.77416" lon="2.1058">
        <ele>101.86</ele>
        <time>2020-05-17T12:57:16Z</time>
      </trkpt>
      <trkpt lat="48.77417" lon="2.10573">
        <ele>101.79</ele>
        <time>2020-05-17T12:57:21Z</time>
      </trkpt>
      <trkpt lat="48.77421" lon="2.10562">
        <ele>101.81</ele>
        <time>2020-05-17T12:57:36Z</time>
      </trkpt>
      <trkpt lat="48.77424" lon="2.10559">
        <ele>101.87</ele>
        <time>2020-05-17T12:57:44Z</time>
      </trkpt>
      <trkpt lat="48.77426" lon="2.10556">
        <ele>101.42</ele>
        <time>2020-05-17T12:57:48Z</time>
      </trkpt>
      <trkpt lat="48.77428" lon="2.10552">
        <ele>101.89</ele>
        <time>2020-05-17T12:57:51Z</time>
      </trkpt>
      <trkpt lat="48.77431" lon="2.10537">
        <ele>101.73</ele>
        <time>2020-05-17T12:58:05Z</time>
      </trkpt>
      <trkpt lat="48.77433" lon="2.10534">
        <ele>101.65</ele>
        <time>2020-05-17T12:58:08Z</time>
      </trkpt>
      <trkpt lat="48.77439" lon="2.10514">
        <ele>101.78</ele>
        <time>2020-05-17T12:58:22Z</time>
      </trkpt>
      <trkpt lat="48.77445" lon="2.10497">
        <ele>102.09</ele>
        <time>2020-05-17T12:58:33Z</time>
      </trkpt>
      <trkpt lat="48.77451" lon="2.10483">
        <ele>101.76</ele>
        <time>2020-05-17T12:58:44Z</time>
      </trkpt>
      <trkpt lat="48.77456" lon="2.10467">
        <ele>101.63</ele>
        <time>2020-05-17T12:58:56Z</time>
      </trkpt>
      <trkpt lat="48.77459" lon="2.10458">
        <ele>101.99</ele>
        <time>2020-05-17T12:59:04Z</time>
      </trkpt>
      <trkpt lat="48.77463" lon="2.10443">
        <ele>102.44</ele>
        <time>2020-05-17T12:59:11Z</time>
      </trkpt>
      <trkpt lat="48.77464" lon="2.1043">
        <ele>102.49</ele>
        <time>2020-05-17T12:59:17Z</time>
      </trkpt>
      <trkpt lat="48.77465" lon="2.10418">
        <ele>102.52</ele>
        <time>2020-05-17T12:59:27Z</time>
      </trkpt>
      <trkpt lat="48.77467" lon="2.10412">
        <ele>102.52</ele>
        <time>2020-05-17T12:59:32Z</time>
      </trkpt>
      <trkpt lat="48.77473" lon="2.10397">
        <ele>103.15</ele>
        <time>2020-05-17T12:59:55Z</time>
      </trkpt>
      <trkpt lat="48.77478" lon="2.10384">
        <ele>103.39</ele>
        <time>2020-05-17T13:00:00Z</time>
      </trkpt>
      <trkpt lat="48.77478" lon="2.10381">
        <ele>103.16</ele>
        <time>2020-05-17T13:00:02Z</time>
      </trkpt>
      <trkpt lat="48.77482" lon="2.10369">
        <ele>103.21</ele>
        <time>2020-05-17T13:00:08Z</time>
      </trkpt>
      <trkpt lat="48.77485" lon="2.10358">
        <ele>103.63</ele>
        <time>2020-05-17T13:00:15Z</time>
      </trkpt>
      <trkpt lat="48.7749" lon="2.10338">
        <ele>103.82</ele>
        <time>2020-05-17T13:00:23Z</time>
      </trkpt>
      <trkpt lat="48.77498" lon="2.10312">
        <ele>103.59</ele>
        <time>2020-05-17T13:00:36Z</time>
      </trkpt>
      <trkpt lat="48.77506" lon="2.10293">
        <ele>103.58</ele>
        <time>2020-05-17T13:00:55Z</time>
      </trkpt>
      <trkpt lat="48.77509" lon="2.10277">
        <ele>103.23</ele>
        <time>2020-05-17T13:01:08Z</time>
      </trkpt>
      <trkpt lat="48.77509" lon="2.1027">
        <ele>103.26</ele>
        <time>2020-05-17T13:01:20Z</time>
      </trkpt>
      <trkpt lat="48.77513" lon="2.10266">
        <ele>102.9</ele>
        <time>2020-05-17T13:01:30Z</time>
      </trkpt>
      <trkpt lat="48.77515" lon="2.10251">
        <ele>102.9</ele>
        <time>2020-05-17T13:01:42Z</time>
      </trkpt>
      <trkpt lat="48.77513" lon="2.10234">
        <ele>103.25</ele>
        <time>2020-05-17T13:01:58Z</time>
      </trkpt>
      <trkpt lat="48.77512" lon="2.10215">
        <ele>103.21</ele>
        <time>2020-05-17T13:02:12Z</time>
      </trkpt>
      <trkpt lat="48.7751" lon="2.10178">
        <ele>104.27</ele>
        <time>2020-05-17T13:02:27Z</time>
      </trkpt>
      <trkpt lat="48.77508" lon="2.10171">
        <ele>103.99</ele>
        <time>2020-05-17T13:02:37Z</time>
      </trkpt>
      <trkpt lat="48.77507" lon="2.10166">
        <ele>103.94</ele>
        <time>2020-05-17T13:02:42Z</time>
      </trkpt>
      <trkpt lat="48.77505" lon="2.10135">
        <ele>103.67</ele>
        <time>2020-05-17T13:03:04Z</time>
      </trkpt>
      <trkpt lat="48.77505" lon="2.10135">
        <ele>104.38</ele>
        <time>2020-05-17T13:03:23Z</time>
      </trkpt>
      <trkpt lat="48.77513" lon="2.10115">
        <ele>104.57</ele>
        <time>2020-05-17T13:03:45Z</time>
      </trkpt>
      <trkpt lat="48.77521" lon="2.10085">
        <ele>104.24</ele>
        <time>2020-05-17T13:04:08Z</time>
      </trkpt>
      <trkpt lat="48.77529" lon="2.10066">
        <ele>103.86</ele>
        <time>2020-05-17T13:04:24Z</time>
      </trkpt>
      <trkpt lat="48.77537" lon="2.10041">
        <ele>104.02</ele>
        <time>2020-05-17T13:04:42Z</time>
      </trkpt>
      <trkpt lat="48.77549" lon="2.10013">
        <ele>104.7</ele>
        <time>2020-05-17T13:05:05Z</time>
      </trkpt>
      <trkpt lat="48.77562" lon="2.10001">
        <ele>104.44</ele>
        <time>2020-05-17T13:05:20Z</time>
      </trkpt>
      <trkpt lat="48.77567" lon="2.09965">
        <ele>105.01</ele>
        <time>2020-05-17T13:05:43Z</time>
      </trkpt>
      <trkpt lat="48.77574" lon="2.09944">
        <ele>105.36</ele>
        <time>2020-05-17T13:06:06Z</time>
      </trkpt>
      <trkpt lat="48.77585" lon="2.0993">
        <ele>105.96</ele>
        <time>2020-05-17T13:06:21Z</time>
      </trkpt>
      <trkpt lat="48.77592" lon="2.09906">
        <ele>105.55</ele>
        <time>2020-05-17T13:06:42Z</time>
      </trkpt>
      <trkpt lat="48.776" lon="2.09897">
        <ele>105.71</ele>
        <time>2020-05-17T13:07:01Z</time>
      </trkpt>
      <trkpt lat="48.77607" lon="2.09886">
        <ele>106.55</ele>
        <time>2020-05-17T13:07:14Z</time>
      </trkpt>
      <trkpt lat="48.77625" lon="2.09858">
        <ele>107.46</ele>
        <time>2020-05-17T13:07:37Z</time>
      </trkpt>
      <trkpt lat="48.77639" lon="2.09828">
        <ele>108.86</ele>
        <time>2020-05-17T13:08:05Z</time>
      </trkpt>
      <trkpt lat="48.77645" lon="2.09812">
        <ele>109.61</ele>
        <time>2020-05-17T13:08:29Z</time>
      </trkpt>
      <trkpt lat="48.77658" lon="2.09789">
        <ele>109.41</ele>
        <time>2020-05-17T13:08:54Z</time>
      </trkpt>
      <trkpt lat="48.77675" lon="2.09767">
        <ele>109.97</ele>
        <time>2020-05-17T13:09:15Z</time>
      </trkpt>
      <trkpt lat="48.77687" lon="2.09741">
        <ele>110.23</ele>
        <time>2020-05-17T13:09:33Z</time>
      </trkpt>
      <trkpt lat="48.77689" lon="2.09739">
        <ele>110.59</ele>
        <time>2020-05-17T13:09:36Z</time>
      </trkpt>
      <trkpt lat="48.77699" lon="2.09732">
        <ele>110.49</ele>
        <time>2020-05-17T13:09:53Z</time>
      </trkpt>
      <trkpt lat="48.77714" lon="2.09716">
        <ele>110.34</ele>
        <time>2020-05-17T13:10:17Z</time>
      </trkpt>
      <trkpt lat="48.77734" lon="2.09703">
        <ele>109.95</ele>
        <time>2020-05-17T13:10:39Z</time>
      </trkpt>
      <trkpt lat="48.77742" lon="2.09699">
        <ele>109.44</ele>
        <time>2020-05-17T13:10:52Z</time>
      </trkpt>
      <trkpt lat="48.77758" lon="2.09699">
        <ele>109.27</ele>
        <time>2020-05-17T13:11:09Z</time>
      </trkpt>
      <trkpt lat="48.7777" lon="2.09697">
        <ele>109.58</ele>
        <time>2020-05-17T13:11:27Z</time>
      </trkpt>
      <trkpt lat="48.77775" lon="2.09694">
        <ele>109.62</ele>
        <time>2020-05-17T13:11:32Z</time>
      </trkpt>
      <trkpt lat="48.77786" lon="2.09669">
        <ele>110.35</ele>
        <time>2020-05-17T13:11:53Z</time>
      </trkpt>
      <trkpt lat="48.77784" lon="2.0966">
        <ele>110.42</ele>
        <time>2020-05-17T13:12:00Z</time>
      </trkpt>
      <trkpt lat="48.77783" lon="2.09649">
        <ele>110.45</ele>
        <time>2020-05-17T13:12:24Z</time>
      </trkpt>
      <trkpt lat="48.77784" lon="2.09639">
        <ele>111.19</ele>
        <time>2020-05-17T13:12:38Z</time>
      </trkpt>
      <trkpt lat="48.77788" lon="2.09616">
        <ele>111.55</ele>
        <time>2020-05-17T13:12:56Z</time>
      </trkpt>
      <trkpt lat="48.7779" lon="2.09604">
        <ele>111.42</ele>
        <time>2020-05-17T13:13:06Z</time>
      </trkpt>
      <trkpt lat="48.77792" lon="2.09592">
        <ele>112.22</ele>
        <time>2020-05-17T13:13:15Z</time>
      </trkpt>
      <trkpt lat="48.77792" lon="2.09584">
        <ele>111.99</ele>
        <time>2020-05-17T13:13:20Z</time>
      </trkpt>
      <trkpt lat="48.77801" lon="2.09552">
        <ele>112.12</ele>
        <time>2020-05-17T13:13:41Z</time>
      </trkpt>
      <trkpt lat="48.77809" lon="2.0954">
        <ele>112.92</ele>
        <time>2020-05-17T13:13:58Z</time>
      </trkpt>
      <trkpt lat="48.77811" lon="2.0954">
        <ele>112.65</ele>
        <time>2020-05-17T13:14:02Z</time>
      </trkpt>
      <trkpt lat="48.77815" lon="2.09539">
        <ele>113.13</ele>
        <time>2020-05-17T13:14:07Z</time>
      </trkpt>
      <trkpt lat="48.77839" lon="2.09538">
        <ele>113.47</ele>
        <time>2020-05-17T13:14:35Z</time>
      </trkpt>
      <trkpt lat="48.7784" lon="2.09538">
        <ele>113.11</ele>
        <time>2020-05-17T13:14:37Z</time>
      </trkpt>
      <trkpt lat="48.77863" lon="2.0954">
        <ele>112.19</ele>
        <time>2020-05-17T13:14:59Z</time>
      </trkpt>
      <trkpt lat="48.77871" lon="2.09544">
        <ele>112.26</ele>
        <time>2020-05-17T13:15:05Z</time>
      </trkpt>
      <trkpt lat="48.77895" lon="2.09549">
        <ele>111.58</ele>
        <time>2020-05-17T13:15:29Z</time>
      </trkpt>
      <trkpt lat="48.77897" lon="2.09545">
        <ele>111.11</ele>
        <time>2020-05-17T13:15:37Z</time>
      </trkpt>
      <trkpt lat="48.77903" lon="2.09545">
        <ele>111.83</ele>
        <time>2020-05-17T13:15:53Z</time>
      </trkpt>
      <trkpt lat="48.77922" lon="2.09551">
        <ele>111.34</ele>
        <time>2020-05-17T13:16:12Z</time>
      </trkpt>
    </trkseg>
  </trk>
</gpx>